<?xml version="1.0" encoding="UTF-8" standalone="no" ?>
<gpx xmlns="http://www.topografix.com/GPX/1/1" xmlns:xsi="http://www.w3.org/2001/XMLSchema-instance" xsi:schemaLocation="http://www.topografix.com/GPX/1/1 http://www.topografix.com/GPX/1/1/gpx.xsd" version="1.1" creator="VisuGPX - https://www.visugpx.com">
  <metadata>
    <name>rando des cigalous du mercredi 6 mai 2009</name>
    <desc><![CDATA[superbe apres-midi sous un beau soleil]]></desc>
  </metadata>
  <wpt lat="43.75327" lon="5.20302">
    <ele>-49</ele>
  </wpt>
  <wpt lat="43.75403" lon="5.20266">
    <ele>145</ele>
    <name><![CDATA[WP 02MERINDOL]]></name>
  </wpt>
  <wpt lat="43.75403" lon="5.20266">
    <ele>145</ele>
  </wpt>
  <trk>
    <name><![CDATA[2009-05-06_120304]]></name>
    <trkseg>
      <trkpt lat="43.75327" lon="5.20302">
        <ele>-49</ele>
        <time>2009-05-06T12:03:04Z</time>
      </trkpt>
      <trkpt lat="43.753" lon="5.20319">
        <ele>-49</ele>
        <time>2009-05-06T12:03:18Z</time>
      </trkpt>
      <trkpt lat="43.75334" lon="5.20306">
        <ele>-49</ele>
        <time>2009-05-06T12:03:19Z</time>
      </trkpt>
      <trkpt lat="43.75306" lon="5.20313">
        <ele>-49</ele>
        <time>2009-05-06T12:03:20Z</time>
      </trkpt>
      <trkpt lat="43.7532" lon="5.20298">
        <ele>-49</ele>
        <time>2009-05-06T12:03:21Z</time>
      </trkpt>
      <trkpt lat="43.75256" lon="5.20313">
        <ele>-49</ele>
        <time>2009-05-06T12:03:22Z</time>
      </trkpt>
      <trkpt lat="43.75279" lon="5.20311">
        <ele>-49</ele>
        <time>2009-05-06T12:03:23Z</time>
      </trkpt>
      <trkpt lat="43.75306" lon="5.20311">
        <ele>-49</ele>
        <time>2009-05-06T12:03:24Z</time>
      </trkpt>
      <trkpt lat="43.7533" lon="5.20302">
        <ele>-49</ele>
        <time>2009-05-06T12:03:25Z</time>
      </trkpt>
      <trkpt lat="43.75318" lon="5.20311">
        <ele>-49</ele>
        <time>2009-05-06T12:03:26Z</time>
      </trkpt>
      <trkpt lat="43.75361" lon="5.20297">
        <ele>-49</ele>
        <time>2009-05-06T12:03:28Z</time>
      </trkpt>
      <trkpt lat="43.75341" lon="5.20305">
        <ele>-49</ele>
        <time>2009-05-06T12:03:29Z</time>
      </trkpt>
      <trkpt lat="43.75366" lon="5.20279">
        <ele>-49</ele>
        <time>2009-05-06T12:03:31Z</time>
      </trkpt>
      <trkpt lat="43.75286" lon="5.20315">
        <ele>-49</ele>
        <time>2009-05-06T12:03:32Z</time>
      </trkpt>
      <trkpt lat="43.75321" lon="5.20306">
        <ele>-49</ele>
        <time>2009-05-06T12:03:33Z</time>
      </trkpt>
      <trkpt lat="43.75344" lon="5.20299">
        <ele>-49</ele>
        <time>2009-05-06T12:03:34Z</time>
      </trkpt>
      <trkpt lat="43.75346" lon="5.20282">
        <ele>-49</ele>
        <time>2009-05-06T12:03:36Z</time>
      </trkpt>
      <trkpt lat="43.75334" lon="5.20295">
        <ele>-49</ele>
        <time>2009-05-06T12:03:37Z</time>
      </trkpt>
      <trkpt lat="43.75294" lon="5.20317">
        <ele>-49</ele>
        <time>2009-05-06T12:03:38Z</time>
      </trkpt>
      <trkpt lat="43.75326" lon="5.20305">
        <ele>-49</ele>
        <time>2009-05-06T12:03:39Z</time>
      </trkpt>
      <trkpt lat="43.75355" lon="5.2029">
        <ele>-49</ele>
        <time>2009-05-06T12:03:40Z</time>
      </trkpt>
      <trkpt lat="43.75334" lon="5.20296">
        <ele>-49</ele>
        <time>2009-05-06T12:03:46Z</time>
      </trkpt>
      <trkpt lat="43.75297" lon="5.20311">
        <ele>-49</ele>
        <time>2009-05-06T12:03:48Z</time>
      </trkpt>
      <trkpt lat="43.75343" lon="5.20293">
        <ele>-49</ele>
        <time>2009-05-06T12:03:49Z</time>
      </trkpt>
      <trkpt lat="43.7531" lon="5.20309">
        <ele>-49</ele>
        <time>2009-05-06T12:03:50Z</time>
      </trkpt>
      <trkpt lat="43.75319" lon="5.20307">
        <ele>-49</ele>
        <time>2009-05-06T12:03:51Z</time>
      </trkpt>
      <trkpt lat="43.75381" lon="5.20282">
        <ele>-49</ele>
        <time>2009-05-06T12:03:59Z</time>
      </trkpt>
      <trkpt lat="43.75306" lon="5.20307">
        <ele>-49</ele>
        <time>2009-05-06T12:04:00Z</time>
      </trkpt>
      <trkpt lat="43.75341" lon="5.20303">
        <ele>-49</ele>
        <time>2009-05-06T12:04:01Z</time>
      </trkpt>
      <trkpt lat="43.75319" lon="5.20302">
        <ele>-49</ele>
        <time>2009-05-06T12:04:02Z</time>
      </trkpt>
      <trkpt lat="43.75341" lon="5.20296">
        <ele>-49</ele>
        <time>2009-05-06T12:04:03Z</time>
      </trkpt>
      <trkpt lat="43.75299" lon="5.20323">
        <ele>-49</ele>
        <time>2009-05-06T12:04:04Z</time>
      </trkpt>
      <trkpt lat="43.75328" lon="5.20294">
        <ele>-49</ele>
        <time>2009-05-06T12:04:05Z</time>
      </trkpt>
      <trkpt lat="43.75351" lon="5.20305">
        <ele>-49</ele>
        <time>2009-05-06T12:04:06Z</time>
      </trkpt>
      <trkpt lat="43.75293" lon="5.20317">
        <ele>-49</ele>
        <time>2009-05-06T12:04:11Z</time>
      </trkpt>
      <trkpt lat="43.75273" lon="5.20327">
        <ele>-49</ele>
        <time>2009-05-06T12:04:12Z</time>
      </trkpt>
      <trkpt lat="43.75298" lon="5.20327">
        <ele>-49</ele>
        <time>2009-05-06T12:04:13Z</time>
      </trkpt>
      <trkpt lat="43.75326" lon="5.20314">
        <ele>-49</ele>
        <time>2009-05-06T12:04:14Z</time>
      </trkpt>
      <trkpt lat="43.75303" lon="5.20316">
        <ele>-49</ele>
        <time>2009-05-06T12:04:15Z</time>
      </trkpt>
      <trkpt lat="43.7532" lon="5.20308">
        <ele>-49</ele>
        <time>2009-05-06T12:04:16Z</time>
      </trkpt>
      <trkpt lat="43.75313" lon="5.20299">
        <ele>-49</ele>
        <time>2009-05-06T12:04:18Z</time>
      </trkpt>
      <trkpt lat="43.75371" lon="5.20293">
        <ele>-49</ele>
        <time>2009-05-06T12:04:20Z</time>
      </trkpt>
      <trkpt lat="43.75309" lon="5.20323">
        <ele>-49</ele>
        <time>2009-05-06T12:04:21Z</time>
      </trkpt>
      <trkpt lat="43.75289" lon="5.20321">
        <ele>-49</ele>
        <time>2009-05-06T12:04:22Z</time>
      </trkpt>
      <trkpt lat="43.7528" lon="5.20314">
        <ele>-49</ele>
        <time>2009-05-06T12:04:23Z</time>
      </trkpt>
      <trkpt lat="43.75291" lon="5.20318">
        <ele>-49</ele>
        <time>2009-05-06T12:04:24Z</time>
      </trkpt>
      <trkpt lat="43.75319" lon="5.20308">
        <ele>-49</ele>
        <time>2009-05-06T12:04:25Z</time>
      </trkpt>
      <trkpt lat="43.75278" lon="5.20319">
        <ele>-49</ele>
        <time>2009-05-06T12:04:26Z</time>
      </trkpt>
      <trkpt lat="43.75298" lon="5.20317">
        <ele>-49</ele>
        <time>2009-05-06T12:04:27Z</time>
      </trkpt>
      <trkpt lat="43.75335" lon="5.20307">
        <ele>-49</ele>
        <time>2009-05-06T12:04:28Z</time>
      </trkpt>
      <trkpt lat="43.75323" lon="5.20309">
        <ele>-49</ele>
        <time>2009-05-06T12:04:29Z</time>
      </trkpt>
      <trkpt lat="43.75232" lon="5.20343">
        <ele>-49</ele>
        <time>2009-05-06T12:04:30Z</time>
      </trkpt>
      <trkpt lat="43.75263" lon="5.20329">
        <ele>-49</ele>
        <time>2009-05-06T12:04:31Z</time>
      </trkpt>
      <trkpt lat="43.75348" lon="5.20291">
        <ele>-49</ele>
        <time>2009-05-06T12:04:37Z</time>
      </trkpt>
      <trkpt lat="43.75398" lon="5.2028">
        <ele>-49</ele>
        <time>2009-05-06T12:04:38Z</time>
      </trkpt>
      <trkpt lat="43.75368" lon="5.20288">
        <ele>-49</ele>
        <time>2009-05-06T12:04:39Z</time>
      </trkpt>
      <trkpt lat="43.75317" lon="5.20306">
        <ele>-49</ele>
        <time>2009-05-06T12:04:40Z</time>
      </trkpt>
      <trkpt lat="43.75308" lon="5.20314">
        <ele>-49</ele>
        <time>2009-05-06T12:04:41Z</time>
      </trkpt>
      <trkpt lat="43.75363" lon="5.20296">
        <ele>-49</ele>
        <time>2009-05-06T12:04:42Z</time>
      </trkpt>
      <trkpt lat="43.75321" lon="5.20309">
        <ele>-49</ele>
        <time>2009-05-06T12:04:43Z</time>
      </trkpt>
      <trkpt lat="43.75347" lon="5.20302">
        <ele>-49</ele>
        <time>2009-05-06T12:04:44Z</time>
      </trkpt>
      <trkpt lat="43.75366" lon="5.20295">
        <ele>-49</ele>
        <time>2009-05-06T12:04:45Z</time>
      </trkpt>
      <trkpt lat="43.7534" lon="5.20307">
        <ele>-49</ele>
        <time>2009-05-06T12:04:46Z</time>
      </trkpt>
      <trkpt lat="43.75354" lon="5.20301">
        <ele>-49</ele>
        <time>2009-05-06T12:04:47Z</time>
      </trkpt>
      <trkpt lat="43.75316" lon="5.20315">
        <ele>-49</ele>
        <time>2009-05-06T12:04:48Z</time>
      </trkpt>
      <trkpt lat="43.75328" lon="5.20319">
        <ele>-49</ele>
        <time>2009-05-06T12:04:49Z</time>
      </trkpt>
      <trkpt lat="43.75354" lon="5.20302">
        <ele>-49</ele>
        <time>2009-05-06T12:04:50Z</time>
      </trkpt>
      <trkpt lat="43.75349" lon="5.20318">
        <ele>-49</ele>
        <time>2009-05-06T12:04:55Z</time>
      </trkpt>
      <trkpt lat="43.75328" lon="5.20323">
        <ele>-49</ele>
        <time>2009-05-06T12:04:56Z</time>
      </trkpt>
      <trkpt lat="43.75357" lon="5.20313">
        <ele>-49</ele>
        <time>2009-05-06T12:04:57Z</time>
      </trkpt>
      <trkpt lat="43.75326" lon="5.20328">
        <ele>-49</ele>
        <time>2009-05-06T12:04:58Z</time>
      </trkpt>
      <trkpt lat="43.75302" lon="5.20334">
        <ele>-49</ele>
        <time>2009-05-06T12:04:59Z</time>
      </trkpt>
      <trkpt lat="43.75328" lon="5.20324">
        <ele>-49</ele>
        <time>2009-05-06T12:05:00Z</time>
      </trkpt>
      <trkpt lat="43.75373" lon="5.20306">
        <ele>-49</ele>
        <time>2009-05-06T12:05:01Z</time>
      </trkpt>
      <trkpt lat="43.75351" lon="5.20318">
        <ele>-49</ele>
        <time>2009-05-06T12:05:02Z</time>
      </trkpt>
      <trkpt lat="43.75347" lon="5.2033">
        <ele>-49</ele>
        <time>2009-05-06T12:05:07Z</time>
      </trkpt>
      <trkpt lat="43.75328" lon="5.20339">
        <ele>-49</ele>
        <time>2009-05-06T12:05:09Z</time>
      </trkpt>
      <trkpt lat="43.75342" lon="5.20338">
        <ele>-49</ele>
        <time>2009-05-06T12:05:10Z</time>
      </trkpt>
      <trkpt lat="43.75364" lon="5.20338">
        <ele>-49</ele>
        <time>2009-05-06T12:05:11Z</time>
      </trkpt>
      <trkpt lat="43.75398" lon="5.2032">
        <ele>-49</ele>
        <time>2009-05-06T12:05:13Z</time>
      </trkpt>
      <trkpt lat="43.75352" lon="5.20341">
        <ele>-49</ele>
        <time>2009-05-06T12:05:14Z</time>
      </trkpt>
      <trkpt lat="43.75399" lon="5.20326">
        <ele>-49</ele>
        <time>2009-05-06T12:05:15Z</time>
      </trkpt>
      <trkpt lat="43.75412" lon="5.20321">
        <ele>-49</ele>
        <time>2009-05-06T12:05:16Z</time>
      </trkpt>
      <trkpt lat="43.75343" lon="5.20346">
        <ele>-49</ele>
        <time>2009-05-06T12:05:17Z</time>
      </trkpt>
      <trkpt lat="43.75388" lon="5.20332">
        <ele>-49</ele>
        <time>2009-05-06T12:05:18Z</time>
      </trkpt>
      <trkpt lat="43.75323" lon="5.20359">
        <ele>-49</ele>
        <time>2009-05-06T12:05:19Z</time>
      </trkpt>
      <trkpt lat="43.75336" lon="5.20355">
        <ele>-49</ele>
        <time>2009-05-06T12:05:20Z</time>
      </trkpt>
      <trkpt lat="43.75367" lon="5.20339">
        <ele>-49</ele>
        <time>2009-05-06T12:05:21Z</time>
      </trkpt>
      <trkpt lat="43.75404" lon="5.20338">
        <ele>-49</ele>
        <time>2009-05-06T12:05:27Z</time>
      </trkpt>
      <trkpt lat="43.75375" lon="5.20341">
        <ele>-49</ele>
        <time>2009-05-06T12:05:28Z</time>
      </trkpt>
      <trkpt lat="43.75345" lon="5.20358">
        <ele>-49</ele>
        <time>2009-05-06T12:05:29Z</time>
      </trkpt>
      <trkpt lat="43.75369" lon="5.20348">
        <ele>-49</ele>
        <time>2009-05-06T12:05:42Z</time>
      </trkpt>
      <trkpt lat="43.75442" lon="5.20322">
        <ele>-49</ele>
        <time>2009-05-06T12:05:43Z</time>
      </trkpt>
      <trkpt lat="43.75406" lon="5.20331">
        <ele>-49</ele>
        <time>2009-05-06T12:05:44Z</time>
      </trkpt>
      <trkpt lat="43.75418" lon="5.20335">
        <ele>-49</ele>
        <time>2009-05-06T12:05:45Z</time>
      </trkpt>
      <trkpt lat="43.75305" lon="5.20369">
        <ele>-49</ele>
        <time>2009-05-06T12:05:46Z</time>
      </trkpt>
      <trkpt lat="43.75351" lon="5.20363">
        <ele>-49</ele>
        <time>2009-05-06T12:05:47Z</time>
      </trkpt>
      <trkpt lat="43.75368" lon="5.20357">
        <ele>-49</ele>
        <time>2009-05-06T12:05:48Z</time>
      </trkpt>
      <trkpt lat="43.75353" lon="5.20364">
        <ele>-49</ele>
        <time>2009-05-06T12:05:49Z</time>
      </trkpt>
      <trkpt lat="43.75372" lon="5.2035">
        <ele>-49</ele>
        <time>2009-05-06T12:05:50Z</time>
      </trkpt>
      <trkpt lat="43.75382" lon="5.20349">
        <ele>-49</ele>
        <time>2009-05-06T12:05:51Z</time>
      </trkpt>
      <trkpt lat="43.75404" lon="5.20342">
        <ele>-49</ele>
        <time>2009-05-06T12:05:54Z</time>
      </trkpt>
      <trkpt lat="43.7545" lon="5.20303">
        <ele>140</ele>
        <time>2009-05-06T12:05:58Z</time>
      </trkpt>
      <trkpt lat="43.75445" lon="5.20314">
        <ele>121</ele>
        <time>2009-05-06T12:05:59Z</time>
      </trkpt>
      <trkpt lat="43.75439" lon="5.20325">
        <ele>93</ele>
        <time>2009-05-06T12:06:19Z</time>
      </trkpt>
      <trkpt lat="43.75448" lon="5.2033">
        <ele>86</ele>
        <time>2009-05-06T12:06:22Z</time>
      </trkpt>
      <trkpt lat="43.75457" lon="5.20336">
        <ele>86</ele>
        <time>2009-05-06T12:06:25Z</time>
      </trkpt>
      <trkpt lat="43.75446" lon="5.20339">
        <ele>79</ele>
        <time>2009-05-06T12:06:29Z</time>
      </trkpt>
      <trkpt lat="43.7545" lon="5.20326">
        <ele>73</ele>
        <time>2009-05-06T12:06:40Z</time>
      </trkpt>
      <trkpt lat="43.75439" lon="5.20332">
        <ele>61</ele>
        <time>2009-05-06T12:06:48Z</time>
      </trkpt>
      <trkpt lat="43.75428" lon="5.20338">
        <ele>61</ele>
        <time>2009-05-06T12:06:53Z</time>
      </trkpt>
      <trkpt lat="43.75421" lon="5.20345">
        <ele>61</ele>
        <time>2009-05-06T12:06:56Z</time>
      </trkpt>
      <trkpt lat="43.75431" lon="5.20342">
        <ele>61</ele>
        <time>2009-05-06T12:07:06Z</time>
      </trkpt>
      <trkpt lat="43.75448" lon="5.2034">
        <ele>61</ele>
        <time>2009-05-06T12:07:08Z</time>
      </trkpt>
      <trkpt lat="43.75457" lon="5.20339">
        <ele>61</ele>
        <time>2009-05-06T12:07:10Z</time>
      </trkpt>
      <trkpt lat="43.75464" lon="5.2033">
        <ele>48</ele>
        <time>2009-05-06T12:07:23Z</time>
      </trkpt>
      <trkpt lat="43.75472" lon="5.20327">
        <ele>48</ele>
        <time>2009-05-06T12:07:27Z</time>
      </trkpt>
      <trkpt lat="43.75481" lon="5.20322">
        <ele>40</ele>
        <time>2009-05-06T12:07:32Z</time>
      </trkpt>
      <trkpt lat="43.75494" lon="5.20318">
        <ele>34</ele>
        <time>2009-05-06T12:07:39Z</time>
      </trkpt>
      <trkpt lat="43.75502" lon="5.20312">
        <ele>28</ele>
        <time>2009-05-06T12:07:50Z</time>
      </trkpt>
      <trkpt lat="43.75497" lon="5.20302">
        <ele>28</ele>
        <time>2009-05-06T12:08:03Z</time>
      </trkpt>
      <trkpt lat="43.75502" lon="5.20284">
        <ele>19</ele>
        <time>2009-05-06T12:08:20Z</time>
      </trkpt>
      <trkpt lat="43.7551" lon="5.20272">
        <ele>19</ele>
        <time>2009-05-06T12:08:21Z</time>
      </trkpt>
      <trkpt lat="43.755" lon="5.20281">
        <ele>19</ele>
        <time>2009-05-06T12:08:23Z</time>
      </trkpt>
      <trkpt lat="43.7551" lon="5.20286">
        <ele>19</ele>
        <time>2009-05-06T12:08:26Z</time>
      </trkpt>
      <trkpt lat="43.75524" lon="5.20292">
        <ele>19</ele>
        <time>2009-05-06T12:08:32Z</time>
      </trkpt>
      <trkpt lat="43.75515" lon="5.20288">
        <ele>8</ele>
        <time>2009-05-06T12:08:52Z</time>
      </trkpt>
      <trkpt lat="43.75504" lon="5.20289">
        <ele>8</ele>
        <time>2009-05-06T12:08:56Z</time>
      </trkpt>
      <trkpt lat="43.75513" lon="5.20285">
        <ele>3</ele>
        <time>2009-05-06T12:09:14Z</time>
      </trkpt>
      <trkpt lat="43.75504" lon="5.20287">
        <ele>3</ele>
        <time>2009-05-06T12:09:16Z</time>
      </trkpt>
      <trkpt lat="43.75495" lon="5.20284">
        <ele>3</ele>
        <time>2009-05-06T12:09:22Z</time>
      </trkpt>
      <trkpt lat="43.75502" lon="5.20276">
        <ele>3</ele>
        <time>2009-05-06T12:09:28Z</time>
      </trkpt>
      <trkpt lat="43.75509" lon="5.20267">
        <ele>3</ele>
        <time>2009-05-06T12:09:31Z</time>
      </trkpt>
      <trkpt lat="43.75516" lon="5.20258">
        <ele>-3</ele>
        <time>2009-05-06T12:09:36Z</time>
      </trkpt>
      <trkpt lat="43.75508" lon="5.20252">
        <ele>-3</ele>
        <time>2009-05-06T12:09:43Z</time>
      </trkpt>
      <trkpt lat="43.75517" lon="5.20242">
        <ele>-3</ele>
        <time>2009-05-06T12:09:49Z</time>
      </trkpt>
      <trkpt lat="43.75528" lon="5.20237">
        <ele>-10</ele>
        <time>2009-05-06T12:09:54Z</time>
      </trkpt>
      <trkpt lat="43.75526" lon="5.20225">
        <ele>-10</ele>
        <time>2009-05-06T12:10:04Z</time>
      </trkpt>
      <trkpt lat="43.75536" lon="5.20221">
        <ele>-10</ele>
        <time>2009-05-06T12:10:13Z</time>
      </trkpt>
      <trkpt lat="43.75536" lon="5.20204">
        <ele>-16</ele>
        <time>2009-05-06T12:10:21Z</time>
      </trkpt>
      <trkpt lat="43.75529" lon="5.20194">
        <ele>-16</ele>
        <time>2009-05-06T12:10:28Z</time>
      </trkpt>
      <trkpt lat="43.75519" lon="5.20192">
        <ele>-16</ele>
        <time>2009-05-06T12:10:32Z</time>
      </trkpt>
      <trkpt lat="43.75509" lon="5.20189">
        <ele>-16</ele>
        <time>2009-05-06T12:10:35Z</time>
      </trkpt>
      <trkpt lat="43.75515" lon="5.20178">
        <ele>-16</ele>
        <time>2009-05-06T12:10:42Z</time>
      </trkpt>
      <trkpt lat="43.75523" lon="5.20167">
        <ele>-16</ele>
        <time>2009-05-06T12:10:46Z</time>
      </trkpt>
      <trkpt lat="43.7553" lon="5.20159">
        <ele>-23</ele>
        <time>2009-05-06T12:10:53Z</time>
      </trkpt>
      <trkpt lat="43.75534" lon="5.20147">
        <ele>-23</ele>
        <time>2009-05-06T12:11:06Z</time>
      </trkpt>
      <trkpt lat="43.75525" lon="5.20141">
        <ele>-29</ele>
        <time>2009-05-06T12:11:17Z</time>
      </trkpt>
      <trkpt lat="43.75605" lon="5.20104">
        <ele>101</ele>
        <time>2009-05-06T12:11:27Z</time>
      </trkpt>
      <trkpt lat="43.75614" lon="5.20099">
        <ele>126</ele>
        <time>2009-05-06T12:11:32Z</time>
      </trkpt>
      <trkpt lat="43.75622" lon="5.20096">
        <ele>150</ele>
        <time>2009-05-06T12:11:38Z</time>
      </trkpt>
      <trkpt lat="43.75635" lon="5.2009">
        <ele>172</ele>
        <time>2009-05-06T12:11:40Z</time>
      </trkpt>
      <trkpt lat="43.75645" lon="5.20085">
        <ele>184</ele>
        <time>2009-05-06T12:11:43Z</time>
      </trkpt>
      <trkpt lat="43.75654" lon="5.20081">
        <ele>191</ele>
        <time>2009-05-06T12:11:47Z</time>
      </trkpt>
      <trkpt lat="43.75664" lon="5.20081">
        <ele>205</ele>
        <time>2009-05-06T12:11:57Z</time>
      </trkpt>
      <trkpt lat="43.75672" lon="5.20085">
        <ele>205</ele>
        <time>2009-05-06T12:12:05Z</time>
      </trkpt>
      <trkpt lat="43.75681" lon="5.2009">
        <ele>190</ele>
        <time>2009-05-06T12:12:16Z</time>
      </trkpt>
      <trkpt lat="43.75689" lon="5.20081">
        <ele>190</ele>
        <time>2009-05-06T12:12:30Z</time>
      </trkpt>
      <trkpt lat="43.75698" lon="5.20081">
        <ele>190</ele>
        <time>2009-05-06T12:12:39Z</time>
      </trkpt>
      <trkpt lat="43.75709" lon="5.20086">
        <ele>190</ele>
        <time>2009-05-06T12:12:52Z</time>
      </trkpt>
      <trkpt lat="43.75714" lon="5.20075">
        <ele>190</ele>
        <time>2009-05-06T12:13:04Z</time>
      </trkpt>
      <trkpt lat="43.75723" lon="5.20073">
        <ele>190</ele>
        <time>2009-05-06T12:13:21Z</time>
      </trkpt>
      <trkpt lat="43.75731" lon="5.20081">
        <ele>206</ele>
        <time>2009-05-06T12:13:37Z</time>
      </trkpt>
      <trkpt lat="43.75738" lon="5.20072">
        <ele>206</ele>
        <time>2009-05-06T12:13:45Z</time>
      </trkpt>
      <trkpt lat="43.75741" lon="5.2006">
        <ele>199</ele>
        <time>2009-05-06T12:14:05Z</time>
      </trkpt>
      <trkpt lat="43.75749" lon="5.20055">
        <ele>205</ele>
        <time>2009-05-06T12:14:14Z</time>
      </trkpt>
      <trkpt lat="43.75752" lon="5.20044">
        <ele>214</ele>
        <time>2009-05-06T12:14:31Z</time>
      </trkpt>
      <trkpt lat="43.7576" lon="5.20037">
        <ele>214</ele>
        <time>2009-05-06T12:14:47Z</time>
      </trkpt>
      <trkpt lat="43.75767" lon="5.20027">
        <ele>222</ele>
        <time>2009-05-06T12:14:59Z</time>
      </trkpt>
      <trkpt lat="43.75776" lon="5.2003">
        <ele>210</ele>
        <time>2009-05-06T12:15:09Z</time>
      </trkpt>
      <trkpt lat="43.75785" lon="5.20036">
        <ele>185</ele>
        <time>2009-05-06T12:15:41Z</time>
      </trkpt>
      <trkpt lat="43.75789" lon="5.20025">
        <ele>197</ele>
        <time>2009-05-06T12:15:50Z</time>
      </trkpt>
      <trkpt lat="43.75798" lon="5.20018">
        <ele>220</ele>
        <time>2009-05-06T12:16:01Z</time>
      </trkpt>
      <trkpt lat="43.75802" lon="5.20005">
        <ele>229</ele>
        <time>2009-05-06T12:16:33Z</time>
      </trkpt>
      <trkpt lat="43.75798" lon="5.19994">
        <ele>229</ele>
        <time>2009-05-06T12:16:55Z</time>
      </trkpt>
      <trkpt lat="43.75799" lon="5.19982">
        <ele>229</ele>
        <time>2009-05-06T12:17:04Z</time>
      </trkpt>
      <trkpt lat="43.75805" lon="5.19972">
        <ele>229</ele>
        <time>2009-05-06T12:17:23Z</time>
      </trkpt>
      <trkpt lat="43.75814" lon="5.19977">
        <ele>229</ele>
        <time>2009-05-06T12:17:37Z</time>
      </trkpt>
      <trkpt lat="43.75823" lon="5.19982">
        <ele>236</ele>
        <time>2009-05-06T12:17:50Z</time>
      </trkpt>
      <trkpt lat="43.75832" lon="5.19984">
        <ele>225</ele>
        <time>2009-05-06T12:18:15Z</time>
      </trkpt>
      <trkpt lat="43.75839" lon="5.19977">
        <ele>225</ele>
        <time>2009-05-06T12:18:35Z</time>
      </trkpt>
      <trkpt lat="43.75847" lon="5.19969">
        <ele>245</ele>
        <time>2009-05-06T12:18:58Z</time>
      </trkpt>
      <trkpt lat="43.75853" lon="5.19959">
        <ele>261</ele>
        <time>2009-05-06T12:19:12Z</time>
      </trkpt>
      <trkpt lat="43.75861" lon="5.19966">
        <ele>261</ele>
        <time>2009-05-06T12:19:21Z</time>
      </trkpt>
      <trkpt lat="43.75869" lon="5.19973">
        <ele>261</ele>
        <time>2009-05-06T12:19:30Z</time>
      </trkpt>
      <trkpt lat="43.75871" lon="5.19987">
        <ele>228</ele>
        <time>2009-05-06T12:20:31Z</time>
      </trkpt>
      <trkpt lat="43.75866" lon="5.19977">
        <ele>228</ele>
        <time>2009-05-06T12:21:32Z</time>
      </trkpt>
      <trkpt lat="43.75875" lon="5.19981">
        <ele>255</ele>
        <time>2009-05-06T12:21:58Z</time>
      </trkpt>
      <trkpt lat="43.75884" lon="5.1998">
        <ele>267</ele>
        <time>2009-05-06T12:22:24Z</time>
      </trkpt>
      <trkpt lat="43.75894" lon="5.1998">
        <ele>259</ele>
        <time>2009-05-06T12:22:31Z</time>
      </trkpt>
      <trkpt lat="43.75903" lon="5.19984">
        <ele>245</ele>
        <time>2009-05-06T12:22:38Z</time>
      </trkpt>
      <trkpt lat="43.7591" lon="5.19993">
        <ele>245</ele>
        <time>2009-05-06T12:22:47Z</time>
      </trkpt>
      <trkpt lat="43.75916" lon="5.20002">
        <ele>245</ele>
        <time>2009-05-06T12:22:58Z</time>
      </trkpt>
      <trkpt lat="43.75924" lon="5.20011">
        <ele>245</ele>
        <time>2009-05-06T12:23:08Z</time>
      </trkpt>
      <trkpt lat="43.75927" lon="5.20023">
        <ele>245</ele>
        <time>2009-05-06T12:23:30Z</time>
      </trkpt>
      <trkpt lat="43.75927" lon="5.20036">
        <ele>240</ele>
        <time>2009-05-06T12:23:37Z</time>
      </trkpt>
      <trkpt lat="43.75927" lon="5.20048">
        <ele>240</ele>
        <time>2009-05-06T12:23:45Z</time>
      </trkpt>
      <trkpt lat="43.75927" lon="5.20061">
        <ele>240</ele>
        <time>2009-05-06T12:23:52Z</time>
      </trkpt>
      <trkpt lat="43.75935" lon="5.2007">
        <ele>246</ele>
        <time>2009-05-06T12:24:02Z</time>
      </trkpt>
      <trkpt lat="43.75944" lon="5.20072">
        <ele>246</ele>
        <time>2009-05-06T12:24:11Z</time>
      </trkpt>
      <trkpt lat="43.75952" lon="5.20067">
        <ele>246</ele>
        <time>2009-05-06T12:24:19Z</time>
      </trkpt>
      <trkpt lat="43.75961" lon="5.20062">
        <ele>246</ele>
        <time>2009-05-06T12:24:29Z</time>
      </trkpt>
      <trkpt lat="43.7597" lon="5.20058">
        <ele>246</ele>
        <time>2009-05-06T12:24:38Z</time>
      </trkpt>
      <trkpt lat="43.7598" lon="5.20056">
        <ele>246</ele>
        <time>2009-05-06T12:24:45Z</time>
      </trkpt>
      <trkpt lat="43.75988" lon="5.20061">
        <ele>240</ele>
        <time>2009-05-06T12:24:52Z</time>
      </trkpt>
      <trkpt lat="43.75996" lon="5.20065">
        <ele>240</ele>
        <time>2009-05-06T12:25:00Z</time>
      </trkpt>
      <trkpt lat="43.76004" lon="5.20073">
        <ele>240</ele>
        <time>2009-05-06T12:25:06Z</time>
      </trkpt>
      <trkpt lat="43.7601" lon="5.20084">
        <ele>245</ele>
        <time>2009-05-06T12:25:14Z</time>
      </trkpt>
      <trkpt lat="43.76017" lon="5.20093">
        <ele>254</ele>
        <time>2009-05-06T12:25:22Z</time>
      </trkpt>
      <trkpt lat="43.76017" lon="5.20107">
        <ele>254</ele>
        <time>2009-05-06T12:25:29Z</time>
      </trkpt>
      <trkpt lat="43.76021" lon="5.20119">
        <ele>254</ele>
        <time>2009-05-06T12:25:37Z</time>
      </trkpt>
      <trkpt lat="43.76022" lon="5.20132">
        <ele>248</ele>
        <time>2009-05-06T12:25:45Z</time>
      </trkpt>
      <trkpt lat="43.76021" lon="5.20144">
        <ele>248</ele>
        <time>2009-05-06T12:25:54Z</time>
      </trkpt>
      <trkpt lat="43.76023" lon="5.20158">
        <ele>248</ele>
        <time>2009-05-06T12:26:03Z</time>
      </trkpt>
      <trkpt lat="43.76025" lon="5.2017">
        <ele>248</ele>
        <time>2009-05-06T12:26:12Z</time>
      </trkpt>
      <trkpt lat="43.76024" lon="5.20182">
        <ele>248</ele>
        <time>2009-05-06T12:26:20Z</time>
      </trkpt>
      <trkpt lat="43.76028" lon="5.20194">
        <ele>248</ele>
        <time>2009-05-06T12:26:27Z</time>
      </trkpt>
      <trkpt lat="43.76031" lon="5.20205">
        <ele>248</ele>
        <time>2009-05-06T12:26:38Z</time>
      </trkpt>
      <trkpt lat="43.76032" lon="5.20218">
        <ele>248</ele>
        <time>2009-05-06T12:26:47Z</time>
      </trkpt>
      <trkpt lat="43.76038" lon="5.20228">
        <ele>243</ele>
        <time>2009-05-06T12:26:57Z</time>
      </trkpt>
      <trkpt lat="43.76043" lon="5.20238">
        <ele>237</ele>
        <time>2009-05-06T12:27:06Z</time>
      </trkpt>
      <trkpt lat="43.76047" lon="5.20249">
        <ele>237</ele>
        <time>2009-05-06T12:27:15Z</time>
      </trkpt>
      <trkpt lat="43.76052" lon="5.20261">
        <ele>237</ele>
        <time>2009-05-06T12:27:24Z</time>
      </trkpt>
      <trkpt lat="43.76055" lon="5.20273">
        <ele>249</ele>
        <time>2009-05-06T12:27:34Z</time>
      </trkpt>
      <trkpt lat="43.76058" lon="5.20285">
        <ele>258</ele>
        <time>2009-05-06T12:27:46Z</time>
      </trkpt>
      <trkpt lat="43.76059" lon="5.20298">
        <ele>258</ele>
        <time>2009-05-06T12:27:56Z</time>
      </trkpt>
      <trkpt lat="43.76055" lon="5.20311">
        <ele>258</ele>
        <time>2009-05-06T12:28:03Z</time>
      </trkpt>
      <trkpt lat="43.76057" lon="5.20323">
        <ele>258</ele>
        <time>2009-05-06T12:29:13Z</time>
      </trkpt>
      <trkpt lat="43.76054" lon="5.20335">
        <ele>266</ele>
        <time>2009-05-06T12:29:29Z</time>
      </trkpt>
      <trkpt lat="43.76048" lon="5.20345">
        <ele>257</ele>
        <time>2009-05-06T12:29:43Z</time>
      </trkpt>
      <trkpt lat="43.76042" lon="5.20355">
        <ele>257</ele>
        <time>2009-05-06T12:30:14Z</time>
      </trkpt>
      <trkpt lat="43.76038" lon="5.20366">
        <ele>244</ele>
        <time>2009-05-06T12:30:22Z</time>
      </trkpt>
      <trkpt lat="43.76036" lon="5.20379">
        <ele>254</ele>
        <time>2009-05-06T12:30:34Z</time>
      </trkpt>
      <trkpt lat="43.76034" lon="5.20391">
        <ele>254</ele>
        <time>2009-05-06T12:30:44Z</time>
      </trkpt>
      <trkpt lat="43.76035" lon="5.20404">
        <ele>266</ele>
        <time>2009-05-06T12:30:55Z</time>
      </trkpt>
      <trkpt lat="43.76032" lon="5.20416">
        <ele>272</ele>
        <time>2009-05-06T12:31:07Z</time>
      </trkpt>
      <trkpt lat="43.76035" lon="5.20427">
        <ele>272</ele>
        <time>2009-05-06T12:31:17Z</time>
      </trkpt>
      <trkpt lat="43.76038" lon="5.2044">
        <ele>272</ele>
        <time>2009-05-06T12:31:32Z</time>
      </trkpt>
      <trkpt lat="43.76044" lon="5.20449">
        <ele>272</ele>
        <time>2009-05-06T12:31:44Z</time>
      </trkpt>
      <trkpt lat="43.76051" lon="5.20458">
        <ele>261</ele>
        <time>2009-05-06T12:31:57Z</time>
      </trkpt>
      <trkpt lat="43.76058" lon="5.20465">
        <ele>261</ele>
        <time>2009-05-06T12:32:08Z</time>
      </trkpt>
      <trkpt lat="43.76067" lon="5.20471">
        <ele>261</ele>
        <time>2009-05-06T12:32:20Z</time>
      </trkpt>
      <trkpt lat="43.76074" lon="5.2048">
        <ele>270</ele>
        <time>2009-05-06T12:32:35Z</time>
      </trkpt>
      <trkpt lat="43.76083" lon="5.2048">
        <ele>270</ele>
        <time>2009-05-06T12:32:50Z</time>
      </trkpt>
      <trkpt lat="43.76092" lon="5.20482">
        <ele>277</ele>
        <time>2009-05-06T12:33:06Z</time>
      </trkpt>
      <trkpt lat="43.76101" lon="5.20488">
        <ele>277</ele>
        <time>2009-05-06T12:33:28Z</time>
      </trkpt>
      <trkpt lat="43.7611" lon="5.2049">
        <ele>277</ele>
        <time>2009-05-06T12:33:46Z</time>
      </trkpt>
      <trkpt lat="43.76118" lon="5.20496">
        <ele>285</ele>
        <time>2009-05-06T12:33:59Z</time>
      </trkpt>
      <trkpt lat="43.76125" lon="5.20503">
        <ele>285</ele>
        <time>2009-05-06T12:34:07Z</time>
      </trkpt>
      <trkpt lat="43.76135" lon="5.20505">
        <ele>285</ele>
        <time>2009-05-06T12:34:14Z</time>
      </trkpt>
      <trkpt lat="43.76142" lon="5.20514">
        <ele>285</ele>
        <time>2009-05-06T12:34:24Z</time>
      </trkpt>
      <trkpt lat="43.76138" lon="5.20531">
        <ele>278</ele>
        <time>2009-05-06T12:34:32Z</time>
      </trkpt>
      <trkpt lat="43.76142" lon="5.20518">
        <ele>273</ele>
        <time>2009-05-06T12:34:50Z</time>
      </trkpt>
      <trkpt lat="43.76135" lon="5.20524">
        <ele>273</ele>
        <time>2009-05-06T12:34:59Z</time>
      </trkpt>
      <trkpt lat="43.76145" lon="5.20522">
        <ele>273</ele>
        <time>2009-05-06T12:35:20Z</time>
      </trkpt>
      <trkpt lat="43.76153" lon="5.20514">
        <ele>273</ele>
        <time>2009-05-06T12:35:50Z</time>
      </trkpt>
      <trkpt lat="43.76161" lon="5.20504">
        <ele>268</ele>
        <time>2009-05-06T12:35:55Z</time>
      </trkpt>
      <trkpt lat="43.76153" lon="5.20511">
        <ele>280</ele>
        <time>2009-05-06T12:36:05Z</time>
      </trkpt>
      <trkpt lat="43.76149" lon="5.20522">
        <ele>272</ele>
        <time>2009-05-06T12:36:13Z</time>
      </trkpt>
      <trkpt lat="43.76155" lon="5.20532">
        <ele>260</ele>
        <time>2009-05-06T12:36:25Z</time>
      </trkpt>
      <trkpt lat="43.76162" lon="5.2054">
        <ele>260</ele>
        <time>2009-05-06T12:36:34Z</time>
      </trkpt>
      <trkpt lat="43.7617" lon="5.20546">
        <ele>260</ele>
        <time>2009-05-06T12:36:48Z</time>
      </trkpt>
      <trkpt lat="43.76177" lon="5.20552">
        <ele>267</ele>
        <time>2009-05-06T12:36:58Z</time>
      </trkpt>
      <trkpt lat="43.76186" lon="5.20557">
        <ele>267</ele>
        <time>2009-05-06T12:37:07Z</time>
      </trkpt>
      <trkpt lat="43.76193" lon="5.20564">
        <ele>275</ele>
        <time>2009-05-06T12:37:18Z</time>
      </trkpt>
      <trkpt lat="43.76202" lon="5.20568">
        <ele>275</ele>
        <time>2009-05-06T12:37:29Z</time>
      </trkpt>
      <trkpt lat="43.76211" lon="5.20568">
        <ele>275</ele>
        <time>2009-05-06T12:37:45Z</time>
      </trkpt>
      <trkpt lat="43.7622" lon="5.20571">
        <ele>275</ele>
        <time>2009-05-06T12:38:35Z</time>
      </trkpt>
      <trkpt lat="43.76228" lon="5.20578">
        <ele>283</ele>
        <time>2009-05-06T12:38:48Z</time>
      </trkpt>
      <trkpt lat="43.76236" lon="5.20582">
        <ele>283</ele>
        <time>2009-05-06T12:39:03Z</time>
      </trkpt>
      <trkpt lat="43.76245" lon="5.20585">
        <ele>291</ele>
        <time>2009-05-06T12:39:19Z</time>
      </trkpt>
      <trkpt lat="43.76253" lon="5.2059">
        <ele>299</ele>
        <time>2009-05-06T12:39:31Z</time>
      </trkpt>
      <trkpt lat="43.76262" lon="5.20593">
        <ele>299</ele>
        <time>2009-05-06T12:39:45Z</time>
      </trkpt>
      <trkpt lat="43.76271" lon="5.20594">
        <ele>299</ele>
        <time>2009-05-06T12:39:58Z</time>
      </trkpt>
      <trkpt lat="43.7628" lon="5.20597">
        <ele>299</ele>
        <time>2009-05-06T12:40:15Z</time>
      </trkpt>
      <trkpt lat="43.76289" lon="5.20598">
        <ele>299</ele>
        <time>2009-05-06T12:40:32Z</time>
      </trkpt>
      <trkpt lat="43.76299" lon="5.20596">
        <ele>299</ele>
        <time>2009-05-06T12:40:52Z</time>
      </trkpt>
      <trkpt lat="43.76304" lon="5.20606">
        <ele>299</ele>
        <time>2009-05-06T12:41:06Z</time>
      </trkpt>
      <trkpt lat="43.76314" lon="5.20605">
        <ele>299</ele>
        <time>2009-05-06T12:41:16Z</time>
      </trkpt>
      <trkpt lat="43.76323" lon="5.20608">
        <ele>305</ele>
        <time>2009-05-06T12:41:24Z</time>
      </trkpt>
      <trkpt lat="43.76332" lon="5.20614">
        <ele>305</ele>
        <time>2009-05-06T12:41:33Z</time>
      </trkpt>
      <trkpt lat="43.76337" lon="5.20625">
        <ele>305</ele>
        <time>2009-05-06T12:41:41Z</time>
      </trkpt>
      <trkpt lat="43.76344" lon="5.20634">
        <ele>305</ele>
        <time>2009-05-06T12:41:51Z</time>
      </trkpt>
      <trkpt lat="43.76345" lon="5.20647">
        <ele>311</ele>
        <time>2009-05-06T12:42:07Z</time>
      </trkpt>
      <trkpt lat="43.7635" lon="5.20657">
        <ele>306</ele>
        <time>2009-05-06T12:45:20Z</time>
      </trkpt>
      <trkpt lat="43.76349" lon="5.2067">
        <ele>306</ele>
        <time>2009-05-06T12:45:29Z</time>
      </trkpt>
      <trkpt lat="43.76348" lon="5.20683">
        <ele>306</ele>
        <time>2009-05-06T12:46:07Z</time>
      </trkpt>
      <trkpt lat="43.76347" lon="5.20696">
        <ele>306</ele>
        <time>2009-05-06T12:46:17Z</time>
      </trkpt>
      <trkpt lat="43.76347" lon="5.20709">
        <ele>306</ele>
        <time>2009-05-06T12:46:25Z</time>
      </trkpt>
      <trkpt lat="43.76347" lon="5.20722">
        <ele>312</ele>
        <time>2009-05-06T12:46:33Z</time>
      </trkpt>
      <trkpt lat="43.7634" lon="5.20729">
        <ele>312</ele>
        <time>2009-05-06T12:47:04Z</time>
      </trkpt>
      <trkpt lat="43.76346" lon="5.20738">
        <ele>312</ele>
        <time>2009-05-06T12:48:02Z</time>
      </trkpt>
      <trkpt lat="43.7635" lon="5.2075">
        <ele>312</ele>
        <time>2009-05-06T12:48:10Z</time>
      </trkpt>
      <trkpt lat="43.76355" lon="5.20762">
        <ele>312</ele>
        <time>2009-05-06T12:48:21Z</time>
      </trkpt>
      <trkpt lat="43.76359" lon="5.20773">
        <ele>312</ele>
        <time>2009-05-06T12:48:29Z</time>
      </trkpt>
      <trkpt lat="43.76363" lon="5.20786">
        <ele>312</ele>
        <time>2009-05-06T12:48:36Z</time>
      </trkpt>
      <trkpt lat="43.76369" lon="5.20796">
        <ele>312</ele>
        <time>2009-05-06T12:48:44Z</time>
      </trkpt>
      <trkpt lat="43.76376" lon="5.20803">
        <ele>312</ele>
        <time>2009-05-06T12:48:52Z</time>
      </trkpt>
      <trkpt lat="43.76385" lon="5.20808">
        <ele>318</ele>
        <time>2009-05-06T12:49:01Z</time>
      </trkpt>
      <trkpt lat="43.76392" lon="5.20816">
        <ele>318</ele>
        <time>2009-05-06T12:49:09Z</time>
      </trkpt>
      <trkpt lat="43.76399" lon="5.20823">
        <ele>318</ele>
        <time>2009-05-06T12:49:17Z</time>
      </trkpt>
      <trkpt lat="43.76407" lon="5.20832">
        <ele>318</ele>
        <time>2009-05-06T12:49:25Z</time>
      </trkpt>
      <trkpt lat="43.76414" lon="5.20839">
        <ele>318</ele>
        <time>2009-05-06T12:49:34Z</time>
      </trkpt>
      <trkpt lat="43.76421" lon="5.20848">
        <ele>318</ele>
        <time>2009-05-06T12:49:43Z</time>
      </trkpt>
      <trkpt lat="43.76426" lon="5.20859">
        <ele>318</ele>
        <time>2009-05-06T12:49:51Z</time>
      </trkpt>
      <trkpt lat="43.76431" lon="5.20868">
        <ele>318</ele>
        <time>2009-05-06T12:49:59Z</time>
      </trkpt>
      <trkpt lat="43.76436" lon="5.20879">
        <ele>318</ele>
        <time>2009-05-06T12:50:07Z</time>
      </trkpt>
      <trkpt lat="43.76441" lon="5.20889">
        <ele>318</ele>
        <time>2009-05-06T12:50:17Z</time>
      </trkpt>
      <trkpt lat="43.76446" lon="5.20899">
        <ele>318</ele>
        <time>2009-05-06T12:50:28Z</time>
      </trkpt>
      <trkpt lat="43.76453" lon="5.20909">
        <ele>318</ele>
        <time>2009-05-06T12:50:40Z</time>
      </trkpt>
      <trkpt lat="43.76458" lon="5.20921">
        <ele>318</ele>
        <time>2009-05-06T12:50:49Z</time>
      </trkpt>
      <trkpt lat="43.76464" lon="5.20931">
        <ele>318</ele>
        <time>2009-05-06T12:50:57Z</time>
      </trkpt>
      <trkpt lat="43.7647" lon="5.20942">
        <ele>318</ele>
        <time>2009-05-06T12:51:05Z</time>
      </trkpt>
      <trkpt lat="43.76476" lon="5.20952">
        <ele>318</ele>
        <time>2009-05-06T12:51:12Z</time>
      </trkpt>
      <trkpt lat="43.76483" lon="5.20959">
        <ele>318</ele>
        <time>2009-05-06T12:51:22Z</time>
      </trkpt>
      <trkpt lat="43.76489" lon="5.20968">
        <ele>318</ele>
        <time>2009-05-06T12:51:32Z</time>
      </trkpt>
      <trkpt lat="43.76498" lon="5.20975">
        <ele>318</ele>
        <time>2009-05-06T12:51:42Z</time>
      </trkpt>
      <trkpt lat="43.76506" lon="5.2098">
        <ele>318</ele>
        <time>2009-05-06T12:51:53Z</time>
      </trkpt>
      <trkpt lat="43.76515" lon="5.20985">
        <ele>327</ele>
        <time>2009-05-06T12:52:04Z</time>
      </trkpt>
      <trkpt lat="43.76523" lon="5.20989">
        <ele>327</ele>
        <time>2009-05-06T12:52:16Z</time>
      </trkpt>
      <trkpt lat="43.76532" lon="5.20991">
        <ele>327</ele>
        <time>2009-05-06T12:52:26Z</time>
      </trkpt>
      <trkpt lat="43.76541" lon="5.20984">
        <ele>327</ele>
        <time>2009-05-06T12:52:37Z</time>
      </trkpt>
      <trkpt lat="43.76549" lon="5.20979">
        <ele>327</ele>
        <time>2009-05-06T12:52:48Z</time>
      </trkpt>
      <trkpt lat="43.76557" lon="5.20973">
        <ele>327</ele>
        <time>2009-05-06T12:52:58Z</time>
      </trkpt>
      <trkpt lat="43.76564" lon="5.20964">
        <ele>327</ele>
        <time>2009-05-06T12:53:08Z</time>
      </trkpt>
      <trkpt lat="43.76572" lon="5.20957">
        <ele>327</ele>
        <time>2009-05-06T12:53:19Z</time>
      </trkpt>
      <trkpt lat="43.76581" lon="5.20956">
        <ele>327</ele>
        <time>2009-05-06T12:53:29Z</time>
      </trkpt>
      <trkpt lat="43.76589" lon="5.20963">
        <ele>327</ele>
        <time>2009-05-06T12:53:39Z</time>
      </trkpt>
      <trkpt lat="43.76592" lon="5.20974">
        <ele>327</ele>
        <time>2009-05-06T12:54:02Z</time>
      </trkpt>
      <trkpt lat="43.76597" lon="5.20985">
        <ele>327</ele>
        <time>2009-05-06T12:54:22Z</time>
      </trkpt>
      <trkpt lat="43.76602" lon="5.20996">
        <ele>327</ele>
        <time>2009-05-06T12:54:31Z</time>
      </trkpt>
      <trkpt lat="43.76607" lon="5.21009">
        <ele>327</ele>
        <time>2009-05-06T12:54:40Z</time>
      </trkpt>
      <trkpt lat="43.7661" lon="5.2102">
        <ele>327</ele>
        <time>2009-05-06T12:54:53Z</time>
      </trkpt>
      <trkpt lat="43.76615" lon="5.21031">
        <ele>327</ele>
        <time>2009-05-06T12:55:01Z</time>
      </trkpt>
      <trkpt lat="43.76619" lon="5.21043">
        <ele>327</ele>
        <time>2009-05-06T12:55:10Z</time>
      </trkpt>
      <trkpt lat="43.76623" lon="5.21054">
        <ele>327</ele>
        <time>2009-05-06T12:55:20Z</time>
      </trkpt>
      <trkpt lat="43.76627" lon="5.21065">
        <ele>327</ele>
        <time>2009-05-06T12:55:29Z</time>
      </trkpt>
      <trkpt lat="43.76635" lon="5.21072">
        <ele>327</ele>
        <time>2009-05-06T12:57:11Z</time>
      </trkpt>
      <trkpt lat="43.76644" lon="5.21076">
        <ele>334</ele>
        <time>2009-05-06T12:57:27Z</time>
      </trkpt>
      <trkpt lat="43.76635" lon="5.21072">
        <ele>334</ele>
        <time>2009-05-06T12:58:30Z</time>
      </trkpt>
      <trkpt lat="43.76627" lon="5.21069">
        <ele>334</ele>
        <time>2009-05-06T12:58:49Z</time>
      </trkpt>
      <trkpt lat="43.76632" lon="5.2108">
        <ele>334</ele>
        <time>2009-05-06T13:04:14Z</time>
      </trkpt>
      <trkpt lat="43.76638" lon="5.21089">
        <ele>328</ele>
        <time>2009-05-06T13:04:25Z</time>
      </trkpt>
      <trkpt lat="43.76639" lon="5.21102">
        <ele>328</ele>
        <time>2009-05-06T13:04:34Z</time>
      </trkpt>
      <trkpt lat="43.76642" lon="5.21114">
        <ele>328</ele>
        <time>2009-05-06T13:04:45Z</time>
      </trkpt>
      <trkpt lat="43.76642" lon="5.21126">
        <ele>328</ele>
        <time>2009-05-06T13:04:54Z</time>
      </trkpt>
      <trkpt lat="43.76642" lon="5.21139">
        <ele>328</ele>
        <time>2009-05-06T13:05:03Z</time>
      </trkpt>
      <trkpt lat="43.76642" lon="5.21153">
        <ele>328</ele>
        <time>2009-05-06T13:05:12Z</time>
      </trkpt>
      <trkpt lat="43.76643" lon="5.21167">
        <ele>328</ele>
        <time>2009-05-06T13:05:23Z</time>
      </trkpt>
      <trkpt lat="43.76643" lon="5.21179">
        <ele>328</ele>
        <time>2009-05-06T13:05:32Z</time>
      </trkpt>
      <trkpt lat="43.76646" lon="5.21191">
        <ele>328</ele>
        <time>2009-05-06T13:05:40Z</time>
      </trkpt>
      <trkpt lat="43.76652" lon="5.21201">
        <ele>321</ele>
        <time>2009-05-06T13:05:48Z</time>
      </trkpt>
      <trkpt lat="43.76656" lon="5.21212">
        <ele>321</ele>
        <time>2009-05-06T13:06:01Z</time>
      </trkpt>
      <trkpt lat="43.76664" lon="5.2122">
        <ele>321</ele>
        <time>2009-05-06T13:06:12Z</time>
      </trkpt>
      <trkpt lat="43.76672" lon="5.21227">
        <ele>321</ele>
        <time>2009-05-06T13:06:23Z</time>
      </trkpt>
      <trkpt lat="43.7668" lon="5.21233">
        <ele>321</ele>
        <time>2009-05-06T13:06:33Z</time>
      </trkpt>
      <trkpt lat="43.76689" lon="5.21239">
        <ele>321</ele>
        <time>2009-05-06T13:06:45Z</time>
      </trkpt>
      <trkpt lat="43.76698" lon="5.21239">
        <ele>321</ele>
        <time>2009-05-06T13:07:02Z</time>
      </trkpt>
      <trkpt lat="43.76707" lon="5.21239">
        <ele>321</ele>
        <time>2009-05-06T13:07:19Z</time>
      </trkpt>
      <trkpt lat="43.76712" lon="5.21249">
        <ele>327</ele>
        <time>2009-05-06T13:07:41Z</time>
      </trkpt>
      <trkpt lat="43.76711" lon="5.21262">
        <ele>327</ele>
        <time>2009-05-06T13:07:49Z</time>
      </trkpt>
      <trkpt lat="43.76706" lon="5.21272">
        <ele>327</ele>
        <time>2009-05-06T13:07:58Z</time>
      </trkpt>
      <trkpt lat="43.76696" lon="5.21273">
        <ele>327</ele>
        <time>2009-05-06T13:08:07Z</time>
      </trkpt>
      <trkpt lat="43.76687" lon="5.21274">
        <ele>327</ele>
        <time>2009-05-06T13:08:16Z</time>
      </trkpt>
      <trkpt lat="43.76677" lon="5.21279">
        <ele>327</ele>
        <time>2009-05-06T13:08:24Z</time>
      </trkpt>
      <trkpt lat="43.76669" lon="5.21284">
        <ele>327</ele>
        <time>2009-05-06T13:08:32Z</time>
      </trkpt>
      <trkpt lat="43.76662" lon="5.21292">
        <ele>327</ele>
        <time>2009-05-06T13:08:40Z</time>
      </trkpt>
      <trkpt lat="43.76654" lon="5.213">
        <ele>327</ele>
        <time>2009-05-06T13:08:48Z</time>
      </trkpt>
      <trkpt lat="43.76647" lon="5.21308">
        <ele>327</ele>
        <time>2009-05-06T13:08:57Z</time>
      </trkpt>
      <trkpt lat="43.76638" lon="5.21313">
        <ele>327</ele>
        <time>2009-05-06T13:09:06Z</time>
      </trkpt>
      <trkpt lat="43.7663" lon="5.21318">
        <ele>321</ele>
        <time>2009-05-06T13:09:15Z</time>
      </trkpt>
      <trkpt lat="43.76622" lon="5.21325">
        <ele>321</ele>
        <time>2009-05-06T13:09:27Z</time>
      </trkpt>
      <trkpt lat="43.76616" lon="5.21335">
        <ele>321</ele>
        <time>2009-05-06T13:09:38Z</time>
      </trkpt>
      <trkpt lat="43.76614" lon="5.21347">
        <ele>321</ele>
        <time>2009-05-06T13:09:50Z</time>
      </trkpt>
      <trkpt lat="43.76614" lon="5.2136">
        <ele>321</ele>
        <time>2009-05-06T13:10:00Z</time>
      </trkpt>
      <trkpt lat="43.76613" lon="5.21372">
        <ele>321</ele>
        <time>2009-05-06T13:10:11Z</time>
      </trkpt>
      <trkpt lat="43.76612" lon="5.21386">
        <ele>321</ele>
        <time>2009-05-06T13:10:21Z</time>
      </trkpt>
      <trkpt lat="43.7661" lon="5.214">
        <ele>321</ele>
        <time>2009-05-06T13:10:31Z</time>
      </trkpt>
      <trkpt lat="43.76608" lon="5.21413">
        <ele>321</ele>
        <time>2009-05-06T13:10:40Z</time>
      </trkpt>
      <trkpt lat="43.76607" lon="5.21426">
        <ele>321</ele>
        <time>2009-05-06T13:10:50Z</time>
      </trkpt>
      <trkpt lat="43.76605" lon="5.21439">
        <ele>321</ele>
        <time>2009-05-06T13:11:00Z</time>
      </trkpt>
      <trkpt lat="43.76603" lon="5.21451">
        <ele>321</ele>
        <time>2009-05-06T13:11:09Z</time>
      </trkpt>
      <trkpt lat="43.76603" lon="5.21463">
        <ele>321</ele>
        <time>2009-05-06T13:11:17Z</time>
      </trkpt>
      <trkpt lat="43.76601" lon="5.21477">
        <ele>321</ele>
        <time>2009-05-06T13:11:27Z</time>
      </trkpt>
      <trkpt lat="43.76601" lon="5.2149">
        <ele>321</ele>
        <time>2009-05-06T13:11:36Z</time>
      </trkpt>
      <trkpt lat="43.76601" lon="5.21504">
        <ele>321</ele>
        <time>2009-05-06T13:11:45Z</time>
      </trkpt>
      <trkpt lat="43.76602" lon="5.21516">
        <ele>321</ele>
        <time>2009-05-06T13:11:55Z</time>
      </trkpt>
      <trkpt lat="43.766" lon="5.21529">
        <ele>321</ele>
        <time>2009-05-06T13:12:04Z</time>
      </trkpt>
      <trkpt lat="43.76599" lon="5.21541">
        <ele>321</ele>
        <time>2009-05-06T13:12:12Z</time>
      </trkpt>
      <trkpt lat="43.76597" lon="5.21554">
        <ele>321</ele>
        <time>2009-05-06T13:12:21Z</time>
      </trkpt>
      <trkpt lat="43.76597" lon="5.21566">
        <ele>321</ele>
        <time>2009-05-06T13:12:30Z</time>
      </trkpt>
      <trkpt lat="43.76596" lon="5.21579">
        <ele>321</ele>
        <time>2009-05-06T13:12:39Z</time>
      </trkpt>
      <trkpt lat="43.76599" lon="5.21591">
        <ele>316</ele>
        <time>2009-05-06T13:12:46Z</time>
      </trkpt>
      <trkpt lat="43.76599" lon="5.21603">
        <ele>316</ele>
        <time>2009-05-06T13:12:54Z</time>
      </trkpt>
      <trkpt lat="43.76597" lon="5.21617">
        <ele>316</ele>
        <time>2009-05-06T13:13:03Z</time>
      </trkpt>
      <trkpt lat="43.76595" lon="5.2163">
        <ele>316</ele>
        <time>2009-05-06T13:13:13Z</time>
      </trkpt>
      <trkpt lat="43.76597" lon="5.21643">
        <ele>316</ele>
        <time>2009-05-06T13:13:22Z</time>
      </trkpt>
      <trkpt lat="43.76595" lon="5.21656">
        <ele>316</ele>
        <time>2009-05-06T13:13:31Z</time>
      </trkpt>
      <trkpt lat="43.76595" lon="5.21669">
        <ele>316</ele>
        <time>2009-05-06T13:13:40Z</time>
      </trkpt>
      <trkpt lat="43.76594" lon="5.21682">
        <ele>316</ele>
        <time>2009-05-06T13:13:49Z</time>
      </trkpt>
      <trkpt lat="43.76589" lon="5.21692">
        <ele>316</ele>
        <time>2009-05-06T13:13:56Z</time>
      </trkpt>
      <trkpt lat="43.76586" lon="5.21704">
        <ele>316</ele>
        <time>2009-05-06T13:14:04Z</time>
      </trkpt>
      <trkpt lat="43.76582" lon="5.21716">
        <ele>316</ele>
        <time>2009-05-06T13:14:12Z</time>
      </trkpt>
      <trkpt lat="43.76579" lon="5.21727">
        <ele>316</ele>
        <time>2009-05-06T13:14:21Z</time>
      </trkpt>
      <trkpt lat="43.76574" lon="5.21738">
        <ele>310</ele>
        <time>2009-05-06T13:14:30Z</time>
      </trkpt>
      <trkpt lat="43.76569" lon="5.21748">
        <ele>310</ele>
        <time>2009-05-06T13:14:40Z</time>
      </trkpt>
      <trkpt lat="43.76564" lon="5.21759">
        <ele>310</ele>
        <time>2009-05-06T13:14:49Z</time>
      </trkpt>
      <trkpt lat="43.76557" lon="5.21769">
        <ele>310</ele>
        <time>2009-05-06T13:15:00Z</time>
      </trkpt>
      <trkpt lat="43.76552" lon="5.2178">
        <ele>310</ele>
        <time>2009-05-06T13:15:08Z</time>
      </trkpt>
      <trkpt lat="43.76546" lon="5.2179">
        <ele>304</ele>
        <time>2009-05-06T13:15:17Z</time>
      </trkpt>
      <trkpt lat="43.76541" lon="5.21801">
        <ele>304</ele>
        <time>2009-05-06T13:15:26Z</time>
      </trkpt>
      <trkpt lat="43.76534" lon="5.21811">
        <ele>304</ele>
        <time>2009-05-06T13:15:35Z</time>
      </trkpt>
      <trkpt lat="43.7653" lon="5.21822">
        <ele>304</ele>
        <time>2009-05-06T13:15:46Z</time>
      </trkpt>
      <trkpt lat="43.76525" lon="5.21834">
        <ele>304</ele>
        <time>2009-05-06T13:15:58Z</time>
      </trkpt>
      <trkpt lat="43.7652" lon="5.21844">
        <ele>304</ele>
        <time>2009-05-06T13:16:08Z</time>
      </trkpt>
      <trkpt lat="43.76514" lon="5.21855">
        <ele>304</ele>
        <time>2009-05-06T13:16:18Z</time>
      </trkpt>
      <trkpt lat="43.76509" lon="5.21865">
        <ele>304</ele>
        <time>2009-05-06T13:16:27Z</time>
      </trkpt>
      <trkpt lat="43.76504" lon="5.21875">
        <ele>304</ele>
        <time>2009-05-06T13:16:36Z</time>
      </trkpt>
      <trkpt lat="43.76498" lon="5.21885">
        <ele>299</ele>
        <time>2009-05-06T13:16:45Z</time>
      </trkpt>
      <trkpt lat="43.76493" lon="5.21896">
        <ele>299</ele>
        <time>2009-05-06T13:16:54Z</time>
      </trkpt>
      <trkpt lat="43.76488" lon="5.21906">
        <ele>299</ele>
        <time>2009-05-06T13:17:04Z</time>
      </trkpt>
      <trkpt lat="43.76483" lon="5.21917">
        <ele>299</ele>
        <time>2009-05-06T13:17:13Z</time>
      </trkpt>
      <trkpt lat="43.76477" lon="5.21928">
        <ele>299</ele>
        <time>2009-05-06T13:17:23Z</time>
      </trkpt>
      <trkpt lat="43.7647" lon="5.21937">
        <ele>299</ele>
        <time>2009-05-06T13:17:32Z</time>
      </trkpt>
      <trkpt lat="43.76465" lon="5.21948">
        <ele>299</ele>
        <time>2009-05-06T13:17:41Z</time>
      </trkpt>
      <trkpt lat="43.7646" lon="5.21958">
        <ele>299</ele>
        <time>2009-05-06T13:17:50Z</time>
      </trkpt>
      <trkpt lat="43.76455" lon="5.21969">
        <ele>299</ele>
        <time>2009-05-06T13:17:59Z</time>
      </trkpt>
      <trkpt lat="43.76451" lon="5.2198">
        <ele>299</ele>
        <time>2009-05-06T13:18:08Z</time>
      </trkpt>
      <trkpt lat="43.76447" lon="5.21991">
        <ele>293</ele>
        <time>2009-05-06T13:18:16Z</time>
      </trkpt>
      <trkpt lat="43.76441" lon="5.22001">
        <ele>293</ele>
        <time>2009-05-06T13:18:25Z</time>
      </trkpt>
      <trkpt lat="43.76433" lon="5.22009">
        <ele>293</ele>
        <time>2009-05-06T13:18:38Z</time>
      </trkpt>
      <trkpt lat="43.76428" lon="5.2202">
        <ele>293</ele>
        <time>2009-05-06T13:18:46Z</time>
      </trkpt>
      <trkpt lat="43.76423" lon="5.22031">
        <ele>293</ele>
        <time>2009-05-06T13:18:55Z</time>
      </trkpt>
      <trkpt lat="43.76418" lon="5.22042">
        <ele>293</ele>
        <time>2009-05-06T13:19:05Z</time>
      </trkpt>
      <trkpt lat="43.76412" lon="5.22051">
        <ele>293</ele>
        <time>2009-05-06T13:19:14Z</time>
      </trkpt>
      <trkpt lat="43.76407" lon="5.22063">
        <ele>293</ele>
        <time>2009-05-06T13:19:24Z</time>
      </trkpt>
      <trkpt lat="43.76401" lon="5.22073">
        <ele>293</ele>
        <time>2009-05-06T13:19:33Z</time>
      </trkpt>
      <trkpt lat="43.76395" lon="5.22083">
        <ele>293</ele>
        <time>2009-05-06T13:19:42Z</time>
      </trkpt>
      <trkpt lat="43.7639" lon="5.22093">
        <ele>293</ele>
        <time>2009-05-06T13:19:51Z</time>
      </trkpt>
      <trkpt lat="43.76385" lon="5.22104">
        <ele>300</ele>
        <time>2009-05-06T13:20:01Z</time>
      </trkpt>
      <trkpt lat="43.7638" lon="5.22113">
        <ele>300</ele>
        <time>2009-05-06T13:20:12Z</time>
      </trkpt>
      <trkpt lat="43.76375" lon="5.22124">
        <ele>300</ele>
        <time>2009-05-06T13:20:24Z</time>
      </trkpt>
      <trkpt lat="43.7637" lon="5.22135">
        <ele>300</ele>
        <time>2009-05-06T13:20:38Z</time>
      </trkpt>
      <trkpt lat="43.76365" lon="5.22145">
        <ele>300</ele>
        <time>2009-05-06T13:20:48Z</time>
      </trkpt>
      <trkpt lat="43.76358" lon="5.22155">
        <ele>300</ele>
        <time>2009-05-06T13:21:01Z</time>
      </trkpt>
      <trkpt lat="43.76352" lon="5.22164">
        <ele>306</ele>
        <time>2009-05-06T13:21:11Z</time>
      </trkpt>
      <trkpt lat="43.76347" lon="5.22174">
        <ele>306</ele>
        <time>2009-05-06T13:21:24Z</time>
      </trkpt>
      <trkpt lat="43.76342" lon="5.22184">
        <ele>306</ele>
        <time>2009-05-06T13:21:41Z</time>
      </trkpt>
      <trkpt lat="43.76336" lon="5.22194">
        <ele>306</ele>
        <time>2009-05-06T13:21:51Z</time>
      </trkpt>
      <trkpt lat="43.76329" lon="5.22204">
        <ele>306</ele>
        <time>2009-05-06T13:22:05Z</time>
      </trkpt>
      <trkpt lat="43.76322" lon="5.22214">
        <ele>306</ele>
        <time>2009-05-06T13:22:18Z</time>
      </trkpt>
      <trkpt lat="43.76317" lon="5.22225">
        <ele>306</ele>
        <time>2009-05-06T13:22:27Z</time>
      </trkpt>
      <trkpt lat="43.76311" lon="5.22234">
        <ele>306</ele>
        <time>2009-05-06T13:22:37Z</time>
      </trkpt>
      <trkpt lat="43.76304" lon="5.22244">
        <ele>306</ele>
        <time>2009-05-06T13:22:46Z</time>
      </trkpt>
      <trkpt lat="43.76298" lon="5.22253">
        <ele>306</ele>
        <time>2009-05-06T13:22:55Z</time>
      </trkpt>
      <trkpt lat="43.76291" lon="5.22262">
        <ele>306</ele>
        <time>2009-05-06T13:23:03Z</time>
      </trkpt>
      <trkpt lat="43.76284" lon="5.22272">
        <ele>306</ele>
        <time>2009-05-06T13:23:13Z</time>
      </trkpt>
      <trkpt lat="43.76276" lon="5.22281">
        <ele>306</ele>
        <time>2009-05-06T13:23:24Z</time>
      </trkpt>
      <trkpt lat="43.76269" lon="5.2229">
        <ele>306</ele>
        <time>2009-05-06T13:23:34Z</time>
      </trkpt>
      <trkpt lat="43.76261" lon="5.22296">
        <ele>306</ele>
        <time>2009-05-06T13:23:42Z</time>
      </trkpt>
      <trkpt lat="43.76254" lon="5.22304">
        <ele>306</ele>
        <time>2009-05-06T13:23:51Z</time>
      </trkpt>
      <trkpt lat="43.76246" lon="5.22311">
        <ele>306</ele>
        <time>2009-05-06T13:24:01Z</time>
      </trkpt>
      <trkpt lat="43.76239" lon="5.22319">
        <ele>300</ele>
        <time>2009-05-06T13:24:10Z</time>
      </trkpt>
      <trkpt lat="43.76232" lon="5.22328">
        <ele>300</ele>
        <time>2009-05-06T13:24:21Z</time>
      </trkpt>
      <trkpt lat="43.76225" lon="5.22335">
        <ele>300</ele>
        <time>2009-05-06T13:24:31Z</time>
      </trkpt>
      <trkpt lat="43.76219" lon="5.22345">
        <ele>300</ele>
        <time>2009-05-06T13:24:41Z</time>
      </trkpt>
      <trkpt lat="43.76213" lon="5.22355">
        <ele>300</ele>
        <time>2009-05-06T13:24:52Z</time>
      </trkpt>
      <trkpt lat="43.76207" lon="5.22365">
        <ele>300</ele>
        <time>2009-05-06T13:25:03Z</time>
      </trkpt>
      <trkpt lat="43.76204" lon="5.22377">
        <ele>300</ele>
        <time>2009-05-06T13:27:00Z</time>
      </trkpt>
      <trkpt lat="43.76198" lon="5.22386">
        <ele>300</ele>
        <time>2009-05-06T13:33:37Z</time>
      </trkpt>
      <trkpt lat="43.76195" lon="5.22399">
        <ele>300</ele>
        <time>2009-05-06T13:37:33Z</time>
      </trkpt>
      <trkpt lat="43.7619" lon="5.22411">
        <ele>291</ele>
        <time>2009-05-06T13:37:43Z</time>
      </trkpt>
      <trkpt lat="43.76183" lon="5.22422">
        <ele>291</ele>
        <time>2009-05-06T13:37:53Z</time>
      </trkpt>
      <trkpt lat="43.76177" lon="5.22431">
        <ele>291</ele>
        <time>2009-05-06T13:38:01Z</time>
      </trkpt>
      <trkpt lat="43.76171" lon="5.22442">
        <ele>291</ele>
        <time>2009-05-06T13:38:10Z</time>
      </trkpt>
      <trkpt lat="43.76164" lon="5.22449">
        <ele>297</ele>
        <time>2009-05-06T13:38:17Z</time>
      </trkpt>
      <trkpt lat="43.76157" lon="5.22459">
        <ele>297</ele>
        <time>2009-05-06T13:38:26Z</time>
      </trkpt>
      <trkpt lat="43.76151" lon="5.22469">
        <ele>297</ele>
        <time>2009-05-06T13:38:37Z</time>
      </trkpt>
      <trkpt lat="43.76144" lon="5.22478">
        <ele>297</ele>
        <time>2009-05-06T13:38:49Z</time>
      </trkpt>
      <trkpt lat="43.76136" lon="5.22483">
        <ele>297</ele>
        <time>2009-05-06T13:39:02Z</time>
      </trkpt>
      <trkpt lat="43.76131" lon="5.22493">
        <ele>292</ele>
        <time>2009-05-06T13:39:13Z</time>
      </trkpt>
      <trkpt lat="43.76125" lon="5.22503">
        <ele>292</ele>
        <time>2009-05-06T13:39:24Z</time>
      </trkpt>
      <trkpt lat="43.76118" lon="5.22511">
        <ele>292</ele>
        <time>2009-05-06T13:39:36Z</time>
      </trkpt>
      <trkpt lat="43.7611" lon="5.2252">
        <ele>292</ele>
        <time>2009-05-06T13:39:53Z</time>
      </trkpt>
      <trkpt lat="43.76106" lon="5.2253">
        <ele>282</ele>
        <time>2009-05-06T13:40:08Z</time>
      </trkpt>
      <trkpt lat="43.76103" lon="5.22542">
        <ele>282</ele>
        <time>2009-05-06T13:40:21Z</time>
      </trkpt>
      <trkpt lat="43.76099" lon="5.22554">
        <ele>282</ele>
        <time>2009-05-06T13:40:36Z</time>
      </trkpt>
      <trkpt lat="43.76095" lon="5.22564">
        <ele>282</ele>
        <time>2009-05-06T13:40:49Z</time>
      </trkpt>
      <trkpt lat="43.76092" lon="5.22576">
        <ele>282</ele>
        <time>2009-05-06T13:41:02Z</time>
      </trkpt>
      <trkpt lat="43.76095" lon="5.22588">
        <ele>282</ele>
        <time>2009-05-06T13:41:29Z</time>
      </trkpt>
      <trkpt lat="43.76095" lon="5.22601">
        <ele>275</ele>
        <time>2009-05-06T13:41:38Z</time>
      </trkpt>
      <trkpt lat="43.76097" lon="5.22615">
        <ele>275</ele>
        <time>2009-05-06T13:41:47Z</time>
      </trkpt>
      <trkpt lat="43.76099" lon="5.22628">
        <ele>275</ele>
        <time>2009-05-06T13:41:56Z</time>
      </trkpt>
      <trkpt lat="43.76101" lon="5.22641">
        <ele>269</ele>
        <time>2009-05-06T13:42:04Z</time>
      </trkpt>
      <trkpt lat="43.76104" lon="5.22653">
        <ele>269</ele>
        <time>2009-05-06T13:42:13Z</time>
      </trkpt>
      <trkpt lat="43.76104" lon="5.22666">
        <ele>269</ele>
        <time>2009-05-06T13:42:24Z</time>
      </trkpt>
      <trkpt lat="43.76107" lon="5.22679">
        <ele>269</ele>
        <time>2009-05-06T13:42:34Z</time>
      </trkpt>
      <trkpt lat="43.76112" lon="5.2269">
        <ele>264</ele>
        <time>2009-05-06T13:42:44Z</time>
      </trkpt>
      <trkpt lat="43.76116" lon="5.22702">
        <ele>264</ele>
        <time>2009-05-06T13:42:54Z</time>
      </trkpt>
      <trkpt lat="43.76121" lon="5.22713">
        <ele>264</ele>
        <time>2009-05-06T13:43:03Z</time>
      </trkpt>
      <trkpt lat="43.76126" lon="5.22724">
        <ele>264</ele>
        <time>2009-05-06T13:43:14Z</time>
      </trkpt>
      <trkpt lat="43.76129" lon="5.22736">
        <ele>264</ele>
        <time>2009-05-06T13:43:23Z</time>
      </trkpt>
      <trkpt lat="43.76133" lon="5.22749">
        <ele>258</ele>
        <time>2009-05-06T13:43:35Z</time>
      </trkpt>
      <trkpt lat="43.76135" lon="5.2276">
        <ele>258</ele>
        <time>2009-05-06T13:43:48Z</time>
      </trkpt>
      <trkpt lat="43.76137" lon="5.22773">
        <ele>258</ele>
        <time>2009-05-06T13:43:59Z</time>
      </trkpt>
      <trkpt lat="43.76138" lon="5.22785">
        <ele>258</ele>
        <time>2009-05-06T13:44:10Z</time>
      </trkpt>
      <trkpt lat="43.7614" lon="5.22798">
        <ele>258</ele>
        <time>2009-05-06T13:44:20Z</time>
      </trkpt>
      <trkpt lat="43.7614" lon="5.22811">
        <ele>258</ele>
        <time>2009-05-06T13:44:31Z</time>
      </trkpt>
      <trkpt lat="43.76141" lon="5.22823">
        <ele>251</ele>
        <time>2009-05-06T13:44:42Z</time>
      </trkpt>
      <trkpt lat="43.76142" lon="5.22836">
        <ele>251</ele>
        <time>2009-05-06T13:44:55Z</time>
      </trkpt>
      <trkpt lat="43.76142" lon="5.22849">
        <ele>251</ele>
        <time>2009-05-06T13:45:06Z</time>
      </trkpt>
      <trkpt lat="43.76139" lon="5.22861">
        <ele>251</ele>
        <time>2009-05-06T13:45:17Z</time>
      </trkpt>
      <trkpt lat="43.76136" lon="5.22873">
        <ele>245</ele>
        <time>2009-05-06T13:45:28Z</time>
      </trkpt>
      <trkpt lat="43.76134" lon="5.22885">
        <ele>245</ele>
        <time>2009-05-06T13:45:41Z</time>
      </trkpt>
      <trkpt lat="43.76131" lon="5.22897">
        <ele>245</ele>
        <time>2009-05-06T13:45:53Z</time>
      </trkpt>
      <trkpt lat="43.76126" lon="5.22908">
        <ele>238</ele>
        <time>2009-05-06T13:46:04Z</time>
      </trkpt>
      <trkpt lat="43.76121" lon="5.22919">
        <ele>238</ele>
        <time>2009-05-06T13:46:14Z</time>
      </trkpt>
      <trkpt lat="43.76118" lon="5.22931">
        <ele>238</ele>
        <time>2009-05-06T13:46:26Z</time>
      </trkpt>
      <trkpt lat="43.76114" lon="5.22942">
        <ele>238</ele>
        <time>2009-05-06T13:46:36Z</time>
      </trkpt>
      <trkpt lat="43.76108" lon="5.22952">
        <ele>233</ele>
        <time>2009-05-06T13:46:46Z</time>
      </trkpt>
      <trkpt lat="43.76103" lon="5.22963">
        <ele>233</ele>
        <time>2009-05-06T13:46:56Z</time>
      </trkpt>
      <trkpt lat="43.76101" lon="5.22975">
        <ele>233</ele>
        <time>2009-05-06T13:47:06Z</time>
      </trkpt>
      <trkpt lat="43.76097" lon="5.22987">
        <ele>233</ele>
        <time>2009-05-06T13:47:15Z</time>
      </trkpt>
      <trkpt lat="43.76093" lon="5.22999">
        <ele>233</ele>
        <time>2009-05-06T13:47:26Z</time>
      </trkpt>
      <trkpt lat="43.76089" lon="5.23011">
        <ele>227</ele>
        <time>2009-05-06T13:47:35Z</time>
      </trkpt>
      <trkpt lat="43.76086" lon="5.23023">
        <ele>227</ele>
        <time>2009-05-06T13:47:45Z</time>
      </trkpt>
      <trkpt lat="43.7608" lon="5.23033">
        <ele>227</ele>
        <time>2009-05-06T13:47:55Z</time>
      </trkpt>
      <trkpt lat="43.76075" lon="5.23043">
        <ele>227</ele>
        <time>2009-05-06T13:48:07Z</time>
      </trkpt>
      <trkpt lat="43.76067" lon="5.2305">
        <ele>227</ele>
        <time>2009-05-06T13:48:18Z</time>
      </trkpt>
      <trkpt lat="43.76058" lon="5.2305">
        <ele>227</ele>
        <time>2009-05-06T13:48:27Z</time>
      </trkpt>
      <trkpt lat="43.76049" lon="5.23049">
        <ele>227</ele>
        <time>2009-05-06T13:48:36Z</time>
      </trkpt>
      <trkpt lat="43.76041" lon="5.23041">
        <ele>227</ele>
        <time>2009-05-06T13:48:45Z</time>
      </trkpt>
      <trkpt lat="43.76033" lon="5.23035">
        <ele>227</ele>
        <time>2009-05-06T13:48:54Z</time>
      </trkpt>
      <trkpt lat="43.76026" lon="5.23025">
        <ele>227</ele>
        <time>2009-05-06T13:49:03Z</time>
      </trkpt>
      <trkpt lat="43.76019" lon="5.23016">
        <ele>227</ele>
        <time>2009-05-06T13:49:13Z</time>
      </trkpt>
      <trkpt lat="43.76013" lon="5.23006">
        <ele>227</ele>
        <time>2009-05-06T13:49:22Z</time>
      </trkpt>
      <trkpt lat="43.76011" lon="5.22993">
        <ele>227</ele>
        <time>2009-05-06T13:49:32Z</time>
      </trkpt>
      <trkpt lat="43.76007" lon="5.2298">
        <ele>227</ele>
        <time>2009-05-06T13:49:41Z</time>
      </trkpt>
      <trkpt lat="43.76002" lon="5.22969">
        <ele>227</ele>
        <time>2009-05-06T13:49:51Z</time>
      </trkpt>
      <trkpt lat="43.75998" lon="5.22958">
        <ele>227</ele>
        <time>2009-05-06T13:50:00Z</time>
      </trkpt>
      <trkpt lat="43.75995" lon="5.22945">
        <ele>227</ele>
        <time>2009-05-06T13:50:09Z</time>
      </trkpt>
      <trkpt lat="43.75991" lon="5.22934">
        <ele>227</ele>
        <time>2009-05-06T13:50:18Z</time>
      </trkpt>
      <trkpt lat="43.75987" lon="5.22923">
        <ele>227</ele>
        <time>2009-05-06T13:50:27Z</time>
      </trkpt>
      <trkpt lat="43.75983" lon="5.2291">
        <ele>227</ele>
        <time>2009-05-06T13:50:36Z</time>
      </trkpt>
      <trkpt lat="43.75979" lon="5.22899">
        <ele>227</ele>
        <time>2009-05-06T13:50:46Z</time>
      </trkpt>
      <trkpt lat="43.75974" lon="5.22888">
        <ele>227</ele>
        <time>2009-05-06T13:50:56Z</time>
      </trkpt>
      <trkpt lat="43.75972" lon="5.22876">
        <ele>227</ele>
        <time>2009-05-06T13:51:05Z</time>
      </trkpt>
      <trkpt lat="43.75967" lon="5.22864">
        <ele>227</ele>
        <time>2009-05-06T13:51:15Z</time>
      </trkpt>
      <trkpt lat="43.75964" lon="5.22852">
        <ele>227</ele>
        <time>2009-05-06T13:51:25Z</time>
      </trkpt>
      <trkpt lat="43.75959" lon="5.22839">
        <ele>227</ele>
        <time>2009-05-06T13:51:35Z</time>
      </trkpt>
      <trkpt lat="43.75956" lon="5.22828">
        <ele>222</ele>
        <time>2009-05-06T13:51:44Z</time>
      </trkpt>
      <trkpt lat="43.75952" lon="5.22816">
        <ele>222</ele>
        <time>2009-05-06T13:51:57Z</time>
      </trkpt>
      <trkpt lat="43.7595" lon="5.22804">
        <ele>222</ele>
        <time>2009-05-06T13:52:12Z</time>
      </trkpt>
      <trkpt lat="43.75946" lon="5.22792">
        <ele>214</ele>
        <time>2009-05-06T13:52:24Z</time>
      </trkpt>
      <trkpt lat="43.75945" lon="5.22778">
        <ele>214</ele>
        <time>2009-05-06T13:52:35Z</time>
      </trkpt>
      <trkpt lat="43.75945" lon="5.22766">
        <ele>206</ele>
        <time>2009-05-06T13:52:47Z</time>
      </trkpt>
      <trkpt lat="43.75944" lon="5.22753">
        <ele>206</ele>
        <time>2009-05-06T13:52:58Z</time>
      </trkpt>
      <trkpt lat="43.75944" lon="5.2274">
        <ele>206</ele>
        <time>2009-05-06T13:53:07Z</time>
      </trkpt>
      <trkpt lat="43.75942" lon="5.22728">
        <ele>206</ele>
        <time>2009-05-06T13:53:18Z</time>
      </trkpt>
      <trkpt lat="43.75942" lon="5.22714">
        <ele>206</ele>
        <time>2009-05-06T13:53:30Z</time>
      </trkpt>
      <trkpt lat="43.75935" lon="5.22707">
        <ele>206</ele>
        <time>2009-05-06T13:53:41Z</time>
      </trkpt>
      <trkpt lat="43.75927" lon="5.227">
        <ele>206</ele>
        <time>2009-05-06T13:53:52Z</time>
      </trkpt>
      <trkpt lat="43.75922" lon="5.2269">
        <ele>206</ele>
        <time>2009-05-06T13:54:26Z</time>
      </trkpt>
      <trkpt lat="43.75916" lon="5.22679">
        <ele>198</ele>
        <time>2009-05-06T13:55:53Z</time>
      </trkpt>
      <trkpt lat="43.75915" lon="5.22667">
        <ele>198</ele>
        <time>2009-05-06T13:56:02Z</time>
      </trkpt>
      <trkpt lat="43.75916" lon="5.22653">
        <ele>198</ele>
        <time>2009-05-06T13:56:13Z</time>
      </trkpt>
      <trkpt lat="43.75918" lon="5.22642">
        <ele>198</ele>
        <time>2009-05-06T13:56:23Z</time>
      </trkpt>
      <trkpt lat="43.75919" lon="5.22629">
        <ele>198</ele>
        <time>2009-05-06T13:56:34Z</time>
      </trkpt>
      <trkpt lat="43.7592" lon="5.22617">
        <ele>204</ele>
        <time>2009-05-06T13:56:45Z</time>
      </trkpt>
      <trkpt lat="43.7592" lon="5.22604">
        <ele>204</ele>
        <time>2009-05-06T13:56:57Z</time>
      </trkpt>
      <trkpt lat="43.7592" lon="5.22591">
        <ele>204</ele>
        <time>2009-05-06T13:57:08Z</time>
      </trkpt>
      <trkpt lat="43.7592" lon="5.22578">
        <ele>204</ele>
        <time>2009-05-06T13:57:19Z</time>
      </trkpt>
      <trkpt lat="43.75922" lon="5.22565">
        <ele>204</ele>
        <time>2009-05-06T13:57:29Z</time>
      </trkpt>
      <trkpt lat="43.75922" lon="5.22553">
        <ele>204</ele>
        <time>2009-05-06T13:57:39Z</time>
      </trkpt>
      <trkpt lat="43.75925" lon="5.22541">
        <ele>204</ele>
        <time>2009-05-06T13:57:49Z</time>
      </trkpt>
      <trkpt lat="43.75925" lon="5.22528">
        <ele>204</ele>
        <time>2009-05-06T13:57:57Z</time>
      </trkpt>
      <trkpt lat="43.75926" lon="5.22515">
        <ele>204</ele>
        <time>2009-05-06T13:58:05Z</time>
      </trkpt>
      <trkpt lat="43.75927" lon="5.22502">
        <ele>204</ele>
        <time>2009-05-06T13:58:15Z</time>
      </trkpt>
      <trkpt lat="43.75928" lon="5.22489">
        <ele>204</ele>
        <time>2009-05-06T13:58:25Z</time>
      </trkpt>
      <trkpt lat="43.75931" lon="5.22477">
        <ele>204</ele>
        <time>2009-05-06T13:58:35Z</time>
      </trkpt>
      <trkpt lat="43.75932" lon="5.22465">
        <ele>204</ele>
        <time>2009-05-06T13:58:48Z</time>
      </trkpt>
      <trkpt lat="43.75935" lon="5.22452">
        <ele>204</ele>
        <time>2009-05-06T13:58:57Z</time>
      </trkpt>
      <trkpt lat="43.75938" lon="5.2244">
        <ele>204</ele>
        <time>2009-05-06T13:59:06Z</time>
      </trkpt>
      <trkpt lat="43.7594" lon="5.22428">
        <ele>204</ele>
        <time>2009-05-06T13:59:15Z</time>
      </trkpt>
      <trkpt lat="43.75941" lon="5.22415">
        <ele>204</ele>
        <time>2009-05-06T13:59:24Z</time>
      </trkpt>
      <trkpt lat="43.75943" lon="5.22403">
        <ele>204</ele>
        <time>2009-05-06T13:59:32Z</time>
      </trkpt>
      <trkpt lat="43.75947" lon="5.2239">
        <ele>204</ele>
        <time>2009-05-06T13:59:40Z</time>
      </trkpt>
      <trkpt lat="43.75952" lon="5.22379">
        <ele>204</ele>
        <time>2009-05-06T13:59:49Z</time>
      </trkpt>
      <trkpt lat="43.75956" lon="5.22368">
        <ele>204</ele>
        <time>2009-05-06T13:59:59Z</time>
      </trkpt>
      <trkpt lat="43.75959" lon="5.22356">
        <ele>204</ele>
        <time>2009-05-06T14:00:08Z</time>
      </trkpt>
      <trkpt lat="43.75964" lon="5.22345">
        <ele>204</ele>
        <time>2009-05-06T14:00:18Z</time>
      </trkpt>
      <trkpt lat="43.75969" lon="5.22331">
        <ele>204</ele>
        <time>2009-05-06T14:00:29Z</time>
      </trkpt>
      <trkpt lat="43.75977" lon="5.22324">
        <ele>204</ele>
        <time>2009-05-06T14:00:38Z</time>
      </trkpt>
      <trkpt lat="43.75982" lon="5.22313">
        <ele>204</ele>
        <time>2009-05-06T14:00:50Z</time>
      </trkpt>
      <trkpt lat="43.75988" lon="5.22304">
        <ele>204</ele>
        <time>2009-05-06T14:01:03Z</time>
      </trkpt>
      <trkpt lat="43.75996" lon="5.223">
        <ele>204</ele>
        <time>2009-05-06T14:01:15Z</time>
      </trkpt>
      <trkpt lat="43.76004" lon="5.22293">
        <ele>204</ele>
        <time>2009-05-06T14:01:24Z</time>
      </trkpt>
      <trkpt lat="43.76007" lon="5.22281">
        <ele>212</ele>
        <time>2009-05-06T14:01:33Z</time>
      </trkpt>
      <trkpt lat="43.76011" lon="5.2227">
        <ele>212</ele>
        <time>2009-05-06T14:01:48Z</time>
      </trkpt>
      <trkpt lat="43.76003" lon="5.22265">
        <ele>212</ele>
        <time>2009-05-06T14:02:05Z</time>
      </trkpt>
      <trkpt lat="43.75995" lon="5.22259">
        <ele>212</ele>
        <time>2009-05-06T14:02:15Z</time>
      </trkpt>
      <trkpt lat="43.75985" lon="5.22255">
        <ele>218</ele>
        <time>2009-05-06T14:02:26Z</time>
      </trkpt>
      <trkpt lat="43.75978" lon="5.22247">
        <ele>218</ele>
        <time>2009-05-06T14:02:37Z</time>
      </trkpt>
      <trkpt lat="43.7597" lon="5.2224">
        <ele>218</ele>
        <time>2009-05-06T14:02:48Z</time>
      </trkpt>
      <trkpt lat="43.75964" lon="5.2223">
        <ele>218</ele>
        <time>2009-05-06T14:02:58Z</time>
      </trkpt>
      <trkpt lat="43.7596" lon="5.22219">
        <ele>218</ele>
        <time>2009-05-06T14:03:07Z</time>
      </trkpt>
      <trkpt lat="43.75959" lon="5.22206">
        <ele>218</ele>
        <time>2009-05-06T14:03:17Z</time>
      </trkpt>
      <trkpt lat="43.75957" lon="5.22193">
        <ele>218</ele>
        <time>2009-05-06T14:03:29Z</time>
      </trkpt>
      <trkpt lat="43.75957" lon="5.22181">
        <ele>218</ele>
        <time>2009-05-06T14:03:41Z</time>
      </trkpt>
      <trkpt lat="43.75958" lon="5.22168">
        <ele>218</ele>
        <time>2009-05-06T14:03:52Z</time>
      </trkpt>
      <trkpt lat="43.75957" lon="5.22155">
        <ele>225</ele>
        <time>2009-05-06T14:04:04Z</time>
      </trkpt>
      <trkpt lat="43.7596" lon="5.22143">
        <ele>225</ele>
        <time>2009-05-06T14:04:15Z</time>
      </trkpt>
      <trkpt lat="43.75961" lon="5.22131">
        <ele>225</ele>
        <time>2009-05-06T14:04:27Z</time>
      </trkpt>
      <trkpt lat="43.75965" lon="5.22118">
        <ele>225</ele>
        <time>2009-05-06T14:04:37Z</time>
      </trkpt>
      <trkpt lat="43.75967" lon="5.22106">
        <ele>225</ele>
        <time>2009-05-06T14:04:47Z</time>
      </trkpt>
      <trkpt lat="43.75968" lon="5.22093">
        <ele>225</ele>
        <time>2009-05-06T14:04:56Z</time>
      </trkpt>
      <trkpt lat="43.7597" lon="5.22081">
        <ele>225</ele>
        <time>2009-05-06T14:05:06Z</time>
      </trkpt>
      <trkpt lat="43.75973" lon="5.22069">
        <ele>225</ele>
        <time>2009-05-06T14:05:17Z</time>
      </trkpt>
      <trkpt lat="43.75976" lon="5.22058">
        <ele>219</ele>
        <time>2009-05-06T14:05:28Z</time>
      </trkpt>
      <trkpt lat="43.7598" lon="5.22046">
        <ele>219</ele>
        <time>2009-05-06T14:05:39Z</time>
      </trkpt>
      <trkpt lat="43.75985" lon="5.22036">
        <ele>219</ele>
        <time>2009-05-06T14:05:49Z</time>
      </trkpt>
      <trkpt lat="43.75991" lon="5.22026">
        <ele>213</ele>
        <time>2009-05-06T14:05:59Z</time>
      </trkpt>
      <trkpt lat="43.75998" lon="5.22017">
        <ele>213</ele>
        <time>2009-05-06T14:06:09Z</time>
      </trkpt>
      <trkpt lat="43.76006" lon="5.22011">
        <ele>213</ele>
        <time>2009-05-06T14:06:20Z</time>
      </trkpt>
      <trkpt lat="43.76013" lon="5.22005">
        <ele>213</ele>
        <time>2009-05-06T14:06:30Z</time>
      </trkpt>
      <trkpt lat="43.76023" lon="5.22003">
        <ele>213</ele>
        <time>2009-05-06T14:06:41Z</time>
      </trkpt>
      <trkpt lat="43.76032" lon="5.22002">
        <ele>205</ele>
        <time>2009-05-06T14:07:12Z</time>
      </trkpt>
      <trkpt lat="43.7604" lon="5.21998">
        <ele>205</ele>
        <time>2009-05-06T14:07:26Z</time>
      </trkpt>
      <trkpt lat="43.76049" lon="5.22005">
        <ele>205</ele>
        <time>2009-05-06T14:07:35Z</time>
      </trkpt>
      <trkpt lat="43.76058" lon="5.22005">
        <ele>205</ele>
        <time>2009-05-06T14:07:48Z</time>
      </trkpt>
      <trkpt lat="43.76067" lon="5.22004">
        <ele>205</ele>
        <time>2009-05-06T14:07:58Z</time>
      </trkpt>
      <trkpt lat="43.76076" lon="5.22005">
        <ele>205</ele>
        <time>2009-05-06T14:08:08Z</time>
      </trkpt>
      <trkpt lat="43.76084" lon="5.22001">
        <ele>205</ele>
        <time>2009-05-06T14:08:16Z</time>
      </trkpt>
      <trkpt lat="43.76092" lon="5.21995">
        <ele>205</ele>
        <time>2009-05-06T14:08:30Z</time>
      </trkpt>
      <trkpt lat="43.76101" lon="5.21991">
        <ele>198</ele>
        <time>2009-05-06T14:08:40Z</time>
      </trkpt>
      <trkpt lat="43.76107" lon="5.21981">
        <ele>198</ele>
        <time>2009-05-06T14:08:54Z</time>
      </trkpt>
      <trkpt lat="43.76101" lon="5.21991">
        <ele>212</ele>
        <time>2009-05-06T14:09:35Z</time>
      </trkpt>
      <trkpt lat="43.761" lon="5.21979">
        <ele>212</ele>
        <time>2009-05-06T14:11:53Z</time>
      </trkpt>
      <trkpt lat="43.76101" lon="5.21993">
        <ele>206</ele>
        <time>2009-05-06T14:12:43Z</time>
      </trkpt>
      <trkpt lat="43.76092" lon="5.21991">
        <ele>214</ele>
        <time>2009-05-06T14:13:04Z</time>
      </trkpt>
      <trkpt lat="43.76083" lon="5.21989">
        <ele>205</ele>
        <time>2009-05-06T14:13:18Z</time>
      </trkpt>
      <trkpt lat="43.76073" lon="5.21988">
        <ele>205</ele>
        <time>2009-05-06T14:13:27Z</time>
      </trkpt>
      <trkpt lat="43.76064" lon="5.21987">
        <ele>205</ele>
        <time>2009-05-06T14:13:36Z</time>
      </trkpt>
      <trkpt lat="43.76058" lon="5.21977">
        <ele>199</ele>
        <time>2009-05-06T14:13:46Z</time>
      </trkpt>
      <trkpt lat="43.76055" lon="5.21964">
        <ele>199</ele>
        <time>2009-05-06T14:13:53Z</time>
      </trkpt>
      <trkpt lat="43.76049" lon="5.21954">
        <ele>193</ele>
        <time>2009-05-06T14:14:06Z</time>
      </trkpt>
      <trkpt lat="43.76045" lon="5.21943">
        <ele>193</ele>
        <time>2009-05-06T14:14:16Z</time>
      </trkpt>
      <trkpt lat="43.76039" lon="5.21933">
        <ele>193</ele>
        <time>2009-05-06T14:14:34Z</time>
      </trkpt>
      <trkpt lat="43.76031" lon="5.21927">
        <ele>193</ele>
        <time>2009-05-06T14:14:45Z</time>
      </trkpt>
      <trkpt lat="43.76023" lon="5.2192">
        <ele>193</ele>
        <time>2009-05-06T14:14:55Z</time>
      </trkpt>
      <trkpt lat="43.76014" lon="5.2192">
        <ele>193</ele>
        <time>2009-05-06T14:15:03Z</time>
      </trkpt>
      <trkpt lat="43.76005" lon="5.21921">
        <ele>193</ele>
        <time>2009-05-06T14:15:13Z</time>
      </trkpt>
      <trkpt lat="43.75996" lon="5.21919">
        <ele>193</ele>
        <time>2009-05-06T14:15:22Z</time>
      </trkpt>
      <trkpt lat="43.75987" lon="5.21921">
        <ele>193</ele>
        <time>2009-05-06T14:15:29Z</time>
      </trkpt>
      <trkpt lat="43.75978" lon="5.21927">
        <ele>193</ele>
        <time>2009-05-06T14:15:36Z</time>
      </trkpt>
      <trkpt lat="43.75969" lon="5.21929">
        <ele>193</ele>
        <time>2009-05-06T14:15:44Z</time>
      </trkpt>
      <trkpt lat="43.75959" lon="5.21928">
        <ele>187</ele>
        <time>2009-05-06T14:15:50Z</time>
      </trkpt>
      <trkpt lat="43.75949" lon="5.2193">
        <ele>187</ele>
        <time>2009-05-06T14:15:58Z</time>
      </trkpt>
      <trkpt lat="43.7594" lon="5.21934">
        <ele>187</ele>
        <time>2009-05-06T14:16:04Z</time>
      </trkpt>
      <trkpt lat="43.75931" lon="5.21929">
        <ele>187</ele>
        <time>2009-05-06T14:16:12Z</time>
      </trkpt>
      <trkpt lat="43.75924" lon="5.21919">
        <ele>187</ele>
        <time>2009-05-06T14:16:20Z</time>
      </trkpt>
      <trkpt lat="43.75916" lon="5.21913">
        <ele>187</ele>
        <time>2009-05-06T14:16:29Z</time>
      </trkpt>
      <trkpt lat="43.75908" lon="5.21909">
        <ele>187</ele>
        <time>2009-05-06T14:16:36Z</time>
      </trkpt>
      <trkpt lat="43.75899" lon="5.21904">
        <ele>187</ele>
        <time>2009-05-06T14:16:45Z</time>
      </trkpt>
      <trkpt lat="43.7589" lon="5.21901">
        <ele>182</ele>
        <time>2009-05-06T14:16:53Z</time>
      </trkpt>
      <trkpt lat="43.75881" lon="5.219">
        <ele>182</ele>
        <time>2009-05-06T14:17:02Z</time>
      </trkpt>
      <trkpt lat="43.75871" lon="5.21899">
        <ele>189</ele>
        <time>2009-05-06T14:17:10Z</time>
      </trkpt>
      <trkpt lat="43.75862" lon="5.21897">
        <ele>189</ele>
        <time>2009-05-06T14:17:19Z</time>
      </trkpt>
      <trkpt lat="43.75853" lon="5.21894">
        <ele>184</ele>
        <time>2009-05-06T14:17:27Z</time>
      </trkpt>
      <trkpt lat="43.75843" lon="5.21895">
        <ele>184</ele>
        <time>2009-05-06T14:17:37Z</time>
      </trkpt>
      <trkpt lat="43.75836" lon="5.21905">
        <ele>184</ele>
        <time>2009-05-06T14:17:44Z</time>
      </trkpt>
      <trkpt lat="43.75827" lon="5.21904">
        <ele>184</ele>
        <time>2009-05-06T14:17:53Z</time>
      </trkpt>
      <trkpt lat="43.75818" lon="5.21899">
        <ele>184</ele>
        <time>2009-05-06T14:18:01Z</time>
      </trkpt>
      <trkpt lat="43.75809" lon="5.21894">
        <ele>184</ele>
        <time>2009-05-06T14:18:10Z</time>
      </trkpt>
      <trkpt lat="43.758" lon="5.21892">
        <ele>176</ele>
        <time>2009-05-06T14:18:23Z</time>
      </trkpt>
      <trkpt lat="43.7579" lon="5.21891">
        <ele>170</ele>
        <time>2009-05-06T14:18:34Z</time>
      </trkpt>
      <trkpt lat="43.75782" lon="5.21887">
        <ele>170</ele>
        <time>2009-05-06T14:18:39Z</time>
      </trkpt>
      <trkpt lat="43.75773" lon="5.21885">
        <ele>170</ele>
        <time>2009-05-06T14:18:48Z</time>
      </trkpt>
      <trkpt lat="43.75763" lon="5.2188">
        <ele>170</ele>
        <time>2009-05-06T14:19:01Z</time>
      </trkpt>
      <trkpt lat="43.75755" lon="5.21875">
        <ele>170</ele>
        <time>2009-05-06T14:19:09Z</time>
      </trkpt>
      <trkpt lat="43.75746" lon="5.21874">
        <ele>170</ele>
        <time>2009-05-06T14:19:16Z</time>
      </trkpt>
      <trkpt lat="43.75737" lon="5.21872">
        <ele>170</ele>
        <time>2009-05-06T14:19:24Z</time>
      </trkpt>
      <trkpt lat="43.75728" lon="5.21869">
        <ele>170</ele>
        <time>2009-05-06T14:19:31Z</time>
      </trkpt>
      <trkpt lat="43.75717" lon="5.21865">
        <ele>170</ele>
        <time>2009-05-06T14:19:41Z</time>
      </trkpt>
      <trkpt lat="43.75707" lon="5.21863">
        <ele>170</ele>
        <time>2009-05-06T14:19:47Z</time>
      </trkpt>
      <trkpt lat="43.75698" lon="5.21862">
        <ele>170</ele>
        <time>2009-05-06T14:19:55Z</time>
      </trkpt>
      <trkpt lat="43.75689" lon="5.21858">
        <ele>170</ele>
        <time>2009-05-06T14:20:02Z</time>
      </trkpt>
      <trkpt lat="43.75681" lon="5.21853">
        <ele>170</ele>
        <time>2009-05-06T14:20:10Z</time>
      </trkpt>
      <trkpt lat="43.7567" lon="5.21851">
        <ele>170</ele>
        <time>2009-05-06T14:20:19Z</time>
      </trkpt>
      <trkpt lat="43.75662" lon="5.21848">
        <ele>165</ele>
        <time>2009-05-06T14:20:28Z</time>
      </trkpt>
      <trkpt lat="43.75653" lon="5.21843">
        <ele>165</ele>
        <time>2009-05-06T14:20:37Z</time>
      </trkpt>
      <trkpt lat="43.75644" lon="5.2184">
        <ele>165</ele>
        <time>2009-05-06T14:20:45Z</time>
      </trkpt>
      <trkpt lat="43.75634" lon="5.21839">
        <ele>165</ele>
        <time>2009-05-06T14:20:53Z</time>
      </trkpt>
      <trkpt lat="43.75625" lon="5.21839">
        <ele>165</ele>
        <time>2009-05-06T14:21:02Z</time>
      </trkpt>
      <trkpt lat="43.75619" lon="5.2183">
        <ele>165</ele>
        <time>2009-05-06T14:21:10Z</time>
      </trkpt>
      <trkpt lat="43.75617" lon="5.21816">
        <ele>165</ele>
        <time>2009-05-06T14:21:18Z</time>
      </trkpt>
      <trkpt lat="43.75616" lon="5.21804">
        <ele>159</ele>
        <time>2009-05-06T14:21:26Z</time>
      </trkpt>
      <trkpt lat="43.75616" lon="5.2179">
        <ele>159</ele>
        <time>2009-05-06T14:21:34Z</time>
      </trkpt>
      <trkpt lat="43.75615" lon="5.21777">
        <ele>159</ele>
        <time>2009-05-06T14:21:44Z</time>
      </trkpt>
      <trkpt lat="43.75615" lon="5.21764">
        <ele>159</ele>
        <time>2009-05-06T14:21:53Z</time>
      </trkpt>
      <trkpt lat="43.75614" lon="5.21751">
        <ele>159</ele>
        <time>2009-05-06T14:22:01Z</time>
      </trkpt>
      <trkpt lat="43.75612" lon="5.21739">
        <ele>159</ele>
        <time>2009-05-06T14:22:08Z</time>
      </trkpt>
      <trkpt lat="43.75613" lon="5.21725">
        <ele>159</ele>
        <time>2009-05-06T14:22:16Z</time>
      </trkpt>
      <trkpt lat="43.75612" lon="5.21712">
        <ele>159</ele>
        <time>2009-05-06T14:22:25Z</time>
      </trkpt>
      <trkpt lat="43.7561" lon="5.21698">
        <ele>159</ele>
        <time>2009-05-06T14:22:33Z</time>
      </trkpt>
      <trkpt lat="43.75608" lon="5.21686">
        <ele>159</ele>
        <time>2009-05-06T14:22:40Z</time>
      </trkpt>
      <trkpt lat="43.75605" lon="5.21673">
        <ele>159</ele>
        <time>2009-05-06T14:22:49Z</time>
      </trkpt>
      <trkpt lat="43.75602" lon="5.21659">
        <ele>159</ele>
        <time>2009-05-06T14:22:58Z</time>
      </trkpt>
      <trkpt lat="43.75603" lon="5.21646">
        <ele>159</ele>
        <time>2009-05-06T14:23:06Z</time>
      </trkpt>
      <trkpt lat="43.75608" lon="5.21636">
        <ele>154</ele>
        <time>2009-05-06T14:23:15Z</time>
      </trkpt>
      <trkpt lat="43.75614" lon="5.21625">
        <ele>154</ele>
        <time>2009-05-06T14:23:23Z</time>
      </trkpt>
      <trkpt lat="43.75621" lon="5.21615">
        <ele>154</ele>
        <time>2009-05-06T14:23:32Z</time>
      </trkpt>
      <trkpt lat="43.75625" lon="5.21604">
        <ele>154</ele>
        <time>2009-05-06T14:23:40Z</time>
      </trkpt>
      <trkpt lat="43.75627" lon="5.21592">
        <ele>154</ele>
        <time>2009-05-06T14:23:50Z</time>
      </trkpt>
      <trkpt lat="43.75626" lon="5.21579">
        <ele>154</ele>
        <time>2009-05-06T14:23:59Z</time>
      </trkpt>
      <trkpt lat="43.75625" lon="5.21563">
        <ele>154</ele>
        <time>2009-05-06T14:24:09Z</time>
      </trkpt>
      <trkpt lat="43.75621" lon="5.21551">
        <ele>154</ele>
        <time>2009-05-06T14:24:14Z</time>
      </trkpt>
      <trkpt lat="43.75621" lon="5.21539">
        <ele>154</ele>
        <time>2009-05-06T14:24:22Z</time>
      </trkpt>
      <trkpt lat="43.75616" lon="5.21527">
        <ele>159</ele>
        <time>2009-05-06T14:24:29Z</time>
      </trkpt>
      <trkpt lat="43.75615" lon="5.21513">
        <ele>159</ele>
        <time>2009-05-06T14:24:37Z</time>
      </trkpt>
      <trkpt lat="43.75618" lon="5.21501">
        <ele>159</ele>
        <time>2009-05-06T14:24:46Z</time>
      </trkpt>
      <trkpt lat="43.75619" lon="5.21487">
        <ele>159</ele>
        <time>2009-05-06T14:24:54Z</time>
      </trkpt>
      <trkpt lat="43.75619" lon="5.21475">
        <ele>151</ele>
        <time>2009-05-06T14:25:03Z</time>
      </trkpt>
      <trkpt lat="43.75619" lon="5.21461">
        <ele>151</ele>
        <time>2009-05-06T14:25:12Z</time>
      </trkpt>
      <trkpt lat="43.75614" lon="5.21448">
        <ele>159</ele>
        <time>2009-05-06T14:25:18Z</time>
      </trkpt>
      <trkpt lat="43.75616" lon="5.21435">
        <ele>159</ele>
        <time>2009-05-06T14:25:26Z</time>
      </trkpt>
      <trkpt lat="43.75616" lon="5.21423">
        <ele>159</ele>
        <time>2009-05-06T14:25:35Z</time>
      </trkpt>
      <trkpt lat="43.7562" lon="5.2141">
        <ele>159</ele>
        <time>2009-05-06T14:25:44Z</time>
      </trkpt>
      <trkpt lat="43.75623" lon="5.21398">
        <ele>159</ele>
        <time>2009-05-06T14:25:51Z</time>
      </trkpt>
      <trkpt lat="43.75625" lon="5.21384">
        <ele>159</ele>
        <time>2009-05-06T14:26:03Z</time>
      </trkpt>
      <trkpt lat="43.75628" lon="5.21371">
        <ele>159</ele>
        <time>2009-05-06T14:26:12Z</time>
      </trkpt>
      <trkpt lat="43.75631" lon="5.21358">
        <ele>159</ele>
        <time>2009-05-06T14:26:20Z</time>
      </trkpt>
      <trkpt lat="43.75632" lon="5.21345">
        <ele>159</ele>
        <time>2009-05-06T14:26:29Z</time>
      </trkpt>
      <trkpt lat="43.75635" lon="5.21332">
        <ele>159</ele>
        <time>2009-05-06T14:26:38Z</time>
      </trkpt>
      <trkpt lat="43.75636" lon="5.21319">
        <ele>159</ele>
        <time>2009-05-06T14:26:46Z</time>
      </trkpt>
      <trkpt lat="43.75643" lon="5.21309">
        <ele>159</ele>
        <time>2009-05-06T14:26:54Z</time>
      </trkpt>
      <trkpt lat="43.75646" lon="5.21298">
        <ele>159</ele>
        <time>2009-05-06T14:27:03Z</time>
      </trkpt>
      <trkpt lat="43.75646" lon="5.21285">
        <ele>159</ele>
        <time>2009-05-06T14:27:12Z</time>
      </trkpt>
      <trkpt lat="43.75644" lon="5.21273">
        <ele>164</ele>
        <time>2009-05-06T14:27:18Z</time>
      </trkpt>
      <trkpt lat="43.75646" lon="5.2126">
        <ele>164</ele>
        <time>2009-05-06T14:27:28Z</time>
      </trkpt>
      <trkpt lat="43.75648" lon="5.21247">
        <ele>164</ele>
        <time>2009-05-06T14:27:38Z</time>
      </trkpt>
      <trkpt lat="43.75647" lon="5.21234">
        <ele>164</ele>
        <time>2009-05-06T14:27:48Z</time>
      </trkpt>
      <trkpt lat="43.75645" lon="5.21221">
        <ele>164</ele>
        <time>2009-05-06T14:27:56Z</time>
      </trkpt>
      <trkpt lat="43.7564" lon="5.21208">
        <ele>164</ele>
        <time>2009-05-06T14:28:08Z</time>
      </trkpt>
      <trkpt lat="43.75636" lon="5.21196">
        <ele>164</ele>
        <time>2009-05-06T14:28:13Z</time>
      </trkpt>
      <trkpt lat="43.75638" lon="5.21184">
        <ele>158</ele>
        <time>2009-05-06T14:28:24Z</time>
      </trkpt>
      <trkpt lat="43.75642" lon="5.21172">
        <ele>158</ele>
        <time>2009-05-06T14:28:32Z</time>
      </trkpt>
      <trkpt lat="43.75648" lon="5.21162">
        <ele>158</ele>
        <time>2009-05-06T14:28:40Z</time>
      </trkpt>
      <trkpt lat="43.75651" lon="5.2115">
        <ele>158</ele>
        <time>2009-05-06T14:28:54Z</time>
      </trkpt>
      <trkpt lat="43.75654" lon="5.21138">
        <ele>158</ele>
        <time>2009-05-06T14:29:02Z</time>
      </trkpt>
      <trkpt lat="43.75661" lon="5.21128">
        <ele>158</ele>
        <time>2009-05-06T14:29:10Z</time>
      </trkpt>
      <trkpt lat="43.75666" lon="5.21118">
        <ele>158</ele>
        <time>2009-05-06T14:29:18Z</time>
      </trkpt>
      <trkpt lat="43.7567" lon="5.21106">
        <ele>158</ele>
        <time>2009-05-06T14:29:26Z</time>
      </trkpt>
      <trkpt lat="43.7567" lon="5.21094">
        <ele>158</ele>
        <time>2009-05-06T14:29:34Z</time>
      </trkpt>
      <trkpt lat="43.75674" lon="5.21081">
        <ele>158</ele>
        <time>2009-05-06T14:29:42Z</time>
      </trkpt>
      <trkpt lat="43.75673" lon="5.21068">
        <ele>158</ele>
        <time>2009-05-06T14:29:50Z</time>
      </trkpt>
      <trkpt lat="43.75674" lon="5.21055">
        <ele>158</ele>
        <time>2009-05-06T14:29:59Z</time>
      </trkpt>
      <trkpt lat="43.75675" lon="5.21043">
        <ele>158</ele>
        <time>2009-05-06T14:30:07Z</time>
      </trkpt>
      <trkpt lat="43.75681" lon="5.2103">
        <ele>158</ele>
        <time>2009-05-06T14:30:15Z</time>
      </trkpt>
      <trkpt lat="43.75688" lon="5.2102">
        <ele>158</ele>
        <time>2009-05-06T14:30:24Z</time>
      </trkpt>
      <trkpt lat="43.75691" lon="5.21009">
        <ele>158</ele>
        <time>2009-05-06T14:30:33Z</time>
      </trkpt>
      <trkpt lat="43.75694" lon="5.20997">
        <ele>158</ele>
        <time>2009-05-06T14:30:39Z</time>
      </trkpt>
      <trkpt lat="43.75698" lon="5.20983">
        <ele>158</ele>
        <time>2009-05-06T14:30:48Z</time>
      </trkpt>
      <trkpt lat="43.757" lon="5.20972">
        <ele>158</ele>
        <time>2009-05-06T14:30:55Z</time>
      </trkpt>
      <trkpt lat="43.75705" lon="5.20962">
        <ele>158</ele>
        <time>2009-05-06T14:31:06Z</time>
      </trkpt>
      <trkpt lat="43.75715" lon="5.20964">
        <ele>158</ele>
        <time>2009-05-06T14:31:21Z</time>
      </trkpt>
      <trkpt lat="43.7572" lon="5.20953">
        <ele>174</ele>
        <time>2009-05-06T14:31:55Z</time>
      </trkpt>
      <trkpt lat="43.75711" lon="5.20961">
        <ele>174</ele>
        <time>2009-05-06T14:32:11Z</time>
      </trkpt>
      <trkpt lat="43.75717" lon="5.20952">
        <ele>182</ele>
        <time>2009-05-06T14:32:53Z</time>
      </trkpt>
      <trkpt lat="43.75709" lon="5.20947">
        <ele>173</ele>
        <time>2009-05-06T14:33:08Z</time>
      </trkpt>
      <trkpt lat="43.75717" lon="5.20942">
        <ele>165</ele>
        <time>2009-05-06T14:33:42Z</time>
      </trkpt>
      <trkpt lat="43.7571" lon="5.20931">
        <ele>165</ele>
        <time>2009-05-06T14:33:51Z</time>
      </trkpt>
      <trkpt lat="43.75717" lon="5.20922">
        <ele>165</ele>
        <time>2009-05-06T14:34:07Z</time>
      </trkpt>
      <trkpt lat="43.7572" lon="5.2091">
        <ele>165</ele>
        <time>2009-05-06T14:34:16Z</time>
      </trkpt>
      <trkpt lat="43.75724" lon="5.20898">
        <ele>159</ele>
        <time>2009-05-06T14:34:28Z</time>
      </trkpt>
      <trkpt lat="43.75728" lon="5.20885">
        <ele>168</ele>
        <time>2009-05-06T14:34:40Z</time>
      </trkpt>
      <trkpt lat="43.75731" lon="5.20871">
        <ele>168</ele>
        <time>2009-05-06T14:34:48Z</time>
      </trkpt>
      <trkpt lat="43.75736" lon="5.2086">
        <ele>168</ele>
        <time>2009-05-06T14:34:59Z</time>
      </trkpt>
      <trkpt lat="43.75735" lon="5.20848">
        <ele>168</ele>
        <time>2009-05-06T14:35:08Z</time>
      </trkpt>
      <trkpt lat="43.75739" lon="5.20836">
        <ele>168</ele>
        <time>2009-05-06T14:35:19Z</time>
      </trkpt>
      <trkpt lat="43.75732" lon="5.20827">
        <ele>168</ele>
        <time>2009-05-06T14:35:30Z</time>
      </trkpt>
      <trkpt lat="43.7573" lon="5.20815">
        <ele>168</ele>
        <time>2009-05-06T14:35:37Z</time>
      </trkpt>
      <trkpt lat="43.75729" lon="5.20803">
        <ele>168</ele>
        <time>2009-05-06T14:35:47Z</time>
      </trkpt>
      <trkpt lat="43.7573" lon="5.20789">
        <ele>168</ele>
        <time>2009-05-06T14:35:55Z</time>
      </trkpt>
      <trkpt lat="43.75728" lon="5.20777">
        <ele>168</ele>
        <time>2009-05-06T14:36:03Z</time>
      </trkpt>
      <trkpt lat="43.75728" lon="5.20764">
        <ele>168</ele>
        <time>2009-05-06T14:36:14Z</time>
      </trkpt>
      <trkpt lat="43.75723" lon="5.20751">
        <ele>168</ele>
        <time>2009-05-06T14:36:23Z</time>
      </trkpt>
      <trkpt lat="43.75724" lon="5.20738">
        <ele>168</ele>
        <time>2009-05-06T14:36:34Z</time>
      </trkpt>
      <trkpt lat="43.75728" lon="5.20726">
        <ele>168</ele>
        <time>2009-05-06T14:36:43Z</time>
      </trkpt>
      <trkpt lat="43.75733" lon="5.20713">
        <ele>168</ele>
        <time>2009-05-06T14:36:53Z</time>
      </trkpt>
      <trkpt lat="43.75739" lon="5.20702">
        <ele>168</ele>
        <time>2009-05-06T14:37:01Z</time>
      </trkpt>
      <trkpt lat="43.75745" lon="5.20691">
        <ele>168</ele>
        <time>2009-05-06T14:37:11Z</time>
      </trkpt>
      <trkpt lat="43.75748" lon="5.20679">
        <ele>168</ele>
        <time>2009-05-06T14:37:22Z</time>
      </trkpt>
      <trkpt lat="43.75752" lon="5.20667">
        <ele>168</ele>
        <time>2009-05-06T14:37:31Z</time>
      </trkpt>
      <trkpt lat="43.75756" lon="5.20655">
        <ele>168</ele>
        <time>2009-05-06T14:37:40Z</time>
      </trkpt>
      <trkpt lat="43.7576" lon="5.20643">
        <ele>168</ele>
        <time>2009-05-06T14:37:48Z</time>
      </trkpt>
      <trkpt lat="43.75759" lon="5.20629">
        <ele>173</ele>
        <time>2009-05-06T14:37:57Z</time>
      </trkpt>
      <trkpt lat="43.75759" lon="5.20617">
        <ele>173</ele>
        <time>2009-05-06T14:38:05Z</time>
      </trkpt>
      <trkpt lat="43.7576" lon="5.20603">
        <ele>173</ele>
        <time>2009-05-06T14:38:13Z</time>
      </trkpt>
      <trkpt lat="43.75759" lon="5.20591">
        <ele>173</ele>
        <time>2009-05-06T14:38:22Z</time>
      </trkpt>
      <trkpt lat="43.75758" lon="5.20577">
        <ele>173</ele>
        <time>2009-05-06T14:38:31Z</time>
      </trkpt>
      <trkpt lat="43.75759" lon="5.20564">
        <ele>173</ele>
        <time>2009-05-06T14:38:41Z</time>
      </trkpt>
      <trkpt lat="43.75763" lon="5.20552">
        <ele>173</ele>
        <time>2009-05-06T14:38:55Z</time>
      </trkpt>
      <trkpt lat="43.75767" lon="5.2054">
        <ele>173</ele>
        <time>2009-05-06T14:39:03Z</time>
      </trkpt>
      <trkpt lat="43.75767" lon="5.20527">
        <ele>173</ele>
        <time>2009-05-06T14:39:11Z</time>
      </trkpt>
      <trkpt lat="43.75766" lon="5.20514">
        <ele>173</ele>
        <time>2009-05-06T14:39:19Z</time>
      </trkpt>
      <trkpt lat="43.75758" lon="5.20505">
        <ele>173</ele>
        <time>2009-05-06T14:39:29Z</time>
      </trkpt>
      <trkpt lat="43.75749" lon="5.205">
        <ele>173</ele>
        <time>2009-05-06T14:39:40Z</time>
      </trkpt>
      <trkpt lat="43.75739" lon="5.20497">
        <ele>165</ele>
        <time>2009-05-06T14:39:47Z</time>
      </trkpt>
      <trkpt lat="43.7573" lon="5.20491">
        <ele>165</ele>
        <time>2009-05-06T14:39:55Z</time>
      </trkpt>
      <trkpt lat="43.75721" lon="5.20487">
        <ele>165</ele>
        <time>2009-05-06T14:40:05Z</time>
      </trkpt>
      <trkpt lat="43.75713" lon="5.20482">
        <ele>165</ele>
        <time>2009-05-06T14:40:13Z</time>
      </trkpt>
      <trkpt lat="43.75704" lon="5.20478">
        <ele>165</ele>
        <time>2009-05-06T14:40:21Z</time>
      </trkpt>
      <trkpt lat="43.75695" lon="5.20471">
        <ele>165</ele>
        <time>2009-05-06T14:40:30Z</time>
      </trkpt>
      <trkpt lat="43.75687" lon="5.20466">
        <ele>171</ele>
        <time>2009-05-06T14:40:38Z</time>
      </trkpt>
      <trkpt lat="43.75677" lon="5.20461">
        <ele>171</ele>
        <time>2009-05-06T14:40:47Z</time>
      </trkpt>
      <trkpt lat="43.75669" lon="5.20458">
        <ele>171</ele>
        <time>2009-05-06T14:40:55Z</time>
      </trkpt>
      <trkpt lat="43.75661" lon="5.20454">
        <ele>165</ele>
        <time>2009-05-06T14:41:04Z</time>
      </trkpt>
      <trkpt lat="43.75651" lon="5.20451">
        <ele>165</ele>
        <time>2009-05-06T14:41:13Z</time>
      </trkpt>
      <trkpt lat="43.75644" lon="5.20444">
        <ele>165</ele>
        <time>2009-05-06T14:41:21Z</time>
      </trkpt>
      <trkpt lat="43.75634" lon="5.20441">
        <ele>165</ele>
        <time>2009-05-06T14:41:30Z</time>
      </trkpt>
      <trkpt lat="43.75625" lon="5.20438">
        <ele>158</ele>
        <time>2009-05-06T14:41:40Z</time>
      </trkpt>
      <trkpt lat="43.75616" lon="5.20435">
        <ele>158</ele>
        <time>2009-05-06T14:41:49Z</time>
      </trkpt>
      <trkpt lat="43.75608" lon="5.20428">
        <ele>166</ele>
        <time>2009-05-06T14:41:57Z</time>
      </trkpt>
      <trkpt lat="43.75599" lon="5.20425">
        <ele>175</ele>
        <time>2009-05-06T14:42:07Z</time>
      </trkpt>
      <trkpt lat="43.75593" lon="5.20414">
        <ele>175</ele>
        <time>2009-05-06T14:42:18Z</time>
      </trkpt>
      <trkpt lat="43.75584" lon="5.20412">
        <ele>167</ele>
        <time>2009-05-06T14:42:26Z</time>
      </trkpt>
      <trkpt lat="43.75579" lon="5.20399">
        <ele>167</ele>
        <time>2009-05-06T14:42:35Z</time>
      </trkpt>
      <trkpt lat="43.75582" lon="5.20387">
        <ele>167</ele>
        <time>2009-05-06T14:42:41Z</time>
      </trkpt>
      <trkpt lat="43.75577" lon="5.20368">
        <ele>167</ele>
        <time>2009-05-06T14:42:52Z</time>
      </trkpt>
      <trkpt lat="43.75586" lon="5.20362">
        <ele>158</ele>
        <time>2009-05-06T14:42:57Z</time>
      </trkpt>
      <trkpt lat="43.75591" lon="5.20349">
        <ele>151</ele>
        <time>2009-05-06T14:43:13Z</time>
      </trkpt>
      <trkpt lat="43.75594" lon="5.20335">
        <ele>160</ele>
        <time>2009-05-06T14:43:19Z</time>
      </trkpt>
      <trkpt lat="43.75587" lon="5.20327">
        <ele>168</ele>
        <time>2009-05-06T14:43:27Z</time>
      </trkpt>
      <trkpt lat="43.75578" lon="5.2032">
        <ele>168</ele>
        <time>2009-05-06T14:43:40Z</time>
      </trkpt>
      <trkpt lat="43.75569" lon="5.20316">
        <ele>168</ele>
        <time>2009-05-06T14:43:48Z</time>
      </trkpt>
      <trkpt lat="43.75559" lon="5.20315">
        <ele>168</ele>
        <time>2009-05-06T14:43:56Z</time>
      </trkpt>
      <trkpt lat="43.75549" lon="5.2031">
        <ele>160</ele>
        <time>2009-05-06T14:44:02Z</time>
      </trkpt>
      <trkpt lat="43.75542" lon="5.203">
        <ele>160</ele>
        <time>2009-05-06T14:44:11Z</time>
      </trkpt>
      <trkpt lat="43.75533" lon="5.203">
        <ele>152</ele>
        <time>2009-05-06T14:44:16Z</time>
      </trkpt>
      <trkpt lat="43.75525" lon="5.2029">
        <ele>152</ele>
        <time>2009-05-06T14:44:27Z</time>
      </trkpt>
      <trkpt lat="43.75517" lon="5.20299">
        <ele>152</ele>
        <time>2009-05-06T14:44:35Z</time>
      </trkpt>
      <trkpt lat="43.7551" lon="5.20306">
        <ele>152</ele>
        <time>2009-05-06T14:44:44Z</time>
      </trkpt>
      <trkpt lat="43.75501" lon="5.20306">
        <ele>152</ele>
        <time>2009-05-06T14:44:54Z</time>
      </trkpt>
      <trkpt lat="43.75492" lon="5.20309">
        <ele>152</ele>
        <time>2009-05-06T14:45:03Z</time>
      </trkpt>
      <trkpt lat="43.75483" lon="5.2031">
        <ele>157</ele>
        <time>2009-05-06T14:45:11Z</time>
      </trkpt>
      <trkpt lat="43.75476" lon="5.20317">
        <ele>168</ele>
        <time>2009-05-06T14:45:24Z</time>
      </trkpt>
      <trkpt lat="43.75466" lon="5.20311">
        <ele>162</ele>
        <time>2009-05-06T14:45:35Z</time>
      </trkpt>
      <trkpt lat="43.75457" lon="5.20311">
        <ele>151</ele>
        <time>2009-05-06T14:45:42Z</time>
      </trkpt>
      <trkpt lat="43.75447" lon="5.20308">
        <ele>151</ele>
        <time>2009-05-06T14:45:50Z</time>
      </trkpt>
      <trkpt lat="43.75437" lon="5.20307">
        <ele>151</ele>
        <time>2009-05-06T14:45:59Z</time>
      </trkpt>
      <trkpt lat="43.75427" lon="5.20303">
        <ele>144</ele>
        <time>2009-05-06T14:46:06Z</time>
      </trkpt>
      <trkpt lat="43.75419" lon="5.20299">
        <ele>138</ele>
        <time>2009-05-06T14:46:12Z</time>
      </trkpt>
      <trkpt lat="43.75417" lon="5.20286">
        <ele>138</ele>
        <time>2009-05-06T14:46:20Z</time>
      </trkpt>
      <trkpt lat="43.7541" lon="5.20277">
        <ele>138</ele>
        <time>2009-05-06T14:46:30Z</time>
      </trkpt>
      <trkpt lat="43.75402" lon="5.2027">
        <ele>143</ele>
        <time>2009-05-06T14:46:39Z</time>
      </trkpt>
      <trkpt lat="43.75405" lon="5.20258">
        <ele>156</ele>
        <time>2009-05-06T14:47:26Z</time>
      </trkpt>
      <trkpt lat="43.75413" lon="5.20251">
        <ele>148</ele>
        <time>2009-05-06T14:47:37Z</time>
      </trkpt>
      <trkpt lat="43.75407" lon="5.20261">
        <ele>142</ele>
        <time>2009-05-06T14:48:42Z</time>
      </trkpt>
      <trkpt lat="43.75401" lon="5.20272">
        <ele>147</ele>
        <time>2009-05-06T14:48:58Z</time>
      </trkpt>
      <trkpt lat="43.75403" lon="5.20266">
        <ele>145</ele>
        <time>2009-05-06T14:50:40Z</time>
      </trkpt>
    </trkseg>
  </trk>
</gpx>